Time,TemperatureF,DewpointF,PressureIn,WindDirection,WindDirectionDegrees,WindSpeedMPH,WindSpeedGustMPH,Humidity,HourlyPrecipIn,Conditions,Clouds,dailyrainin,SoftwareType,DateUTC
2013-07-09 04:23:00,73.3,72.4,30.13,SSE,155,0.0,0.0,97,0.00,CLR,SCT,0.00,WeatherDisplay:10.37,2013-07-09 08:23:00,
2013-07-09 04:24:00,73.4,72.5,30.13,SSE,155,0.0,0.0,97,0.00,CLR,SCT,0.00,WeatherDisplay:10.37,2013-07-09 08:24:00,
2013-07-09 04:25:00,73.3,72.4,30.13,SSE,155,0.0,0.0,97,0.00,CLR,SCT,0.00,WeatherDisplay:10.37,2013-07-09 08:25:00,
2013-07-09 04:29:00,73.4,72.5,30.13,SSE,155,0.0,0.0,97,0.00,CLR,SCT,0.00,WeatherDisplay:10.37,2013-07-09 08:29:00,
2013-07-09 04:30:00,73.4,72.5,30.13,SSE,155,0.0,0.0,97,0.00,,SCT,0.00,WeatherDisplay:10.37,2013-07-09 08:30:00,
2013-07-09 04:31:00,73.4,72.5,30.13,SSE,155,0.0,0.0,97,0.00,CLR,SCT,0.00,WeatherDisplay:10.37,2013-07-09 08:31:00,
2013-07-09 04:35:00,73.4,72.5,30.13,SSE,155,0.0,0.0,97,0.00,,SCT,0.00,WeatherDisplay:10.37,2013-07-09 08:35:00,
2013-07-09 04:36:00,73.5,72.6,30.13,SSE,155,0.0,0.0,97,0.00,CLR,SCT,0.00,WeatherDisplay:10.37,2013-07-09 08:36:00,
2013-07-09 04:37:00,73.5,72.6,30.13,SSE,155,0.0,0.0,97,0.00,CLR,SCT,0.00,WeatherDisplay:10.37,2013-07-09 08:37:00,
2013-07-09 04:39:00,73.5,72.6,30.13,SSE,155,0.0,0.0,97,0.00,CLR,SCT,0.00,WeatherDisplay:10.37,2013-07-09 08:39:00,
2013-07-09 04:42:00,73.4,72.5,30.13,SSE,155,0.0,0.0,97,0.00,CLR,SCT,0.00,WeatherDisplay:10.37,2013-07-09 08:42:00,
2013-07-09 04:44:00,73.3,72.4,30.13,SSE,155,0.0,0.0,97,0.00,CLR,SCT,0.00,WeatherDisplay:10.37,2013-07-09 08:44:00,
2013-07-09 04:45:00,73.3,72.4,30.13,SSE,155,0.0,0.0,97,0.00,,SCT,0.00,WeatherDisplay:10.37,2013-07-09 08:45:00,
2013-07-09 04:47:00,73.3,72.4,30.13,SSE,155,0.0,0.0,97,0.00,CLR,SCT,0.00,WeatherDisplay:10.37,2013-07-09 08:47:00,
2013-07-09 04:48:00,73.2,72.3,30.13,SSE,155,0.0,0.0,97,0.00,CLR,SCT,0.00,WeatherDisplay:10.37,2013-07-09 08:48:00,
2013-07-09 04:50:00,73.3,72.4,30.13,SSE,155,0.0,0.0,97,0.00,CLR,SCT,0.00,WeatherDisplay:10.37,2013-07-09 08:50:00,
2013-07-09 04:51:00,73.3,72.4,30.13,SSE,155,0.0,0.0,97,0.00,CLR,SCT,0.00,WeatherDisplay:10.37,2013-07-09 08:51:00,
2013-07-09 04:52:00,73.3,72.4,30.13,SSE,155,0.0,0.0,97,0.00,CLR,SCT,0.00,WeatherDisplay:10.37,2013-07-09 08:52:00,
2013-07-09 04:53:00,73.4,72.5,30.13,SSE,155,0.0,0.0,97,0.00,CLR,SCT,0.00,WeatherDisplay:10.37,2013-07-09 08:53:00,
2013-07-09 04:55:00,73.4,72.5,30.13,SSE,155,0.0,0.0,97,0.00,CLR,SCT,0.00,WeatherDisplay:10.37,2013-07-09 08:55:00,
2013-07-09 04:57:00,73.4,72.5,30.13,SSE,155,0.0,0.0,97,0.00,CLR,SCT,0.00,WeatherDisplay:10.37,2013-07-09 08:57:00,
2013-07-09 04:58:00,73.4,72.5,30.13,SSE,155,0.0,0.0,97,0.00,CLR,SCT,0.00,WeatherDisplay:10.37,2013-07-09 08:58:00,
2013-07-09 04:59:00,73.4,72.5,30.13,SSE,153,0.0,0.0,97,0.00,CLR,SCT,0.00,WeatherDisplay:10.37,2013-07-09 08:59:00,
2013-07-09 05:02:00,73.4,72.5,30.13,SSE,155,0.0,0.0,97,0.00,CLR,SCT,0.00,WeatherDisplay:10.37,2013-07-09 09:02:00,
2013-07-09 05:05:00,73.5,72.6,30.13,SSE,155,0.0,0.0,97,0.00,CLR,SCT,0.00,WeatherDisplay:10.37,2013-07-09 09:05:00,
2013-07-09 05:06:00,73.5,72.6,30.13,SSE,155,0.0,0.0,97,0.00,CLR,SCT,0.00,WeatherDisplay:10.37,2013-07-09 09:06:00,
2013-07-09 05:09:00,73.5,72.6,30.13,SSE,155,0.0,0.0,97,0.00,CLR,SCT,0.00,WeatherDisplay:10.37,2013-07-09 09:09:00,
2013-07-09 05:10:00,73.5,72.6,30.13,SSE,155,0.0,0.0,97,0.00,CLR,SCT,0.00,WeatherDisplay:10.37,2013-07-09 09:10:00,
2013-07-09 05:11:00,73.5,72.6,30.13,SSE,155,0.0,0.0,97,0.00,CLR,SCT,0.00,WeatherDisplay:10.37,2013-07-09 09:11:00,
2013-07-09 05:12:00,73.5,72.6,30.13,SSE,155,0.0,0.0,97,0.00,CLR,SCT,0.00,WeatherDisplay:10.37,2013-07-09 09:12:00,
2013-07-09 05:14:00,73.5,72.6,30.12,SSE,155,0.0,0.0,97,0.00,CLR,SCT,0.00,WeatherDisplay:10.37,2013-07-09 09:14:00,
2013-07-09 05:15:00,73.5,72.6,30.12,SSE,155,0.0,0.0,97,0.00,CLR,SCT,0.00,WeatherDisplay:10.37,2013-07-09 09:15:00,
2013-07-09 05:16:00,73.4,72.5,30.12,SSE,155,0.0,0.0,97,0.00,CLR,SCT,0.00,WeatherDisplay:10.37,2013-07-09 09:16:00,
2013-07-09 05:18:00,73.4,72.5,30.12,SSE,155,0.0,0.0,97,0.00,CLR,SCT,0.00,WeatherDisplay:10.37,2013-07-09 09:18:00,
2013-07-09 05:19:00,73.3,72.4,30.12,SSE,155,0.0,0.0,97,0.00,CLR,SCT,0.00,WeatherDisplay:10.37,2013-07-09 09:19:00,
2013-07-09 05:22:00,73.2,72.3,30.12,SSE,155,0.0,0.0,97,0.00,CLR,SCT,0.00,WeatherDisplay:10.37,2013-07-09 09:22:00,
2013-07-09 05:23:00,73.1,72.2,30.12,SSE,155,0.0,0.0,97,0.00,CLR,SCT,0.00,WeatherDisplay:10.37,2013-07-09 09:23:00,
2013-07-09 05:24:00,73.0,72.1,30.12,SSE,155,0.0,0.0,97,0.00,CLR,SCT,0.00,WeatherDisplay:10.37,2013-07-09 09:24:00,
2013-07-09 05:27:00,72.9,72.0,30.12,SSE,155,0.0,0.0,97,0.00,CLR,SCT,0.00,WeatherDisplay:10.37,2013-07-09 09:27:00,
2013-07-09 05:28:00,72.9,72.0,30.12,SSE,155,0.0,0.0,97,0.00,CLR,SCT,0.00,WeatherDisplay:10.37,2013-07-09 09:28:00,
2013-07-09 05:30:00,72.9,72.0,30.12,SSE,155,0.0,0.0,97,0.00,,SCT,0.00,WeatherDisplay:10.37,2013-07-09 09:30:00,
2013-07-09 05:32:00,72.9,72.0,30.13,SSE,155,0.0,0.0,97,0.00,CLR,SCT,0.00,WeatherDisplay:10.37,2013-07-09 09:32:00,
2013-07-09 05:34:00,72.9,72.0,30.13,SSE,155,0.0,0.0,97,0.00,CLR,SCT,0.00,WeatherDisplay:10.37,2013-07-09 09:34:00,
2013-07-09 05:35:00,72.9,72.0,30.13,SSE,155,0.0,0.0,97,0.00,,SCT,0.00,WeatherDisplay:10.37,2013-07-09 09:35:00,
2013-07-09 05:39:00,72.7,71.8,30.13,SSE,155,0.0,0.0,97,0.00,CLR,SCT,0.00,WeatherDisplay:10.37,2013-07-09 09:39:00,
2013-07-09 05:40:00,72.7,71.8,30.13,SSE,155,0.0,0.0,97,0.00,CLR,SCT,0.00,WeatherDisplay:10.37,2013-07-09 09:40:00,
2013-07-09 05:41:00,72.6,71.7,30.13,SSE,155,0.0,0.0,97,0.00,CLR,SCT,0.00,WeatherDisplay:10.37,2013-07-09 09:41:00,
2013-07-09 05:45:00,72.5,71.6,30.13,SSE,155,0.0,0.0,97,0.00,,SCT,0.00,WeatherDisplay:10.37,2013-07-09 09:45:00,
2013-07-09 05:47:00,72.4,71.5,30.13,SSE,155,0.0,0.0,97,0.00,CLR,SCT,0.00,WeatherDisplay:10.37,2013-07-09 09:47:00,
2013-07-09 05:48:00,72.3,71.4,30.13,SSE,155,0.0,0.0,97,0.00,CLR,SCT,0.00,WeatherDisplay:10.37,2013-07-09 09:48:00,
2013-07-09 05:51:00,72.3,71.4,30.13,SSE,155,0.0,0.0,97,0.00,CLR,SCT,0.00,WeatherDisplay:10.37,2013-07-09 09:51:00,
2013-07-09 05:52:00,72.3,71.4,30.13,SSE,155,0.0,0.0,97,0.00,CLR,SCT,0.00,WeatherDisplay:10.37,2013-07-09 09:52:00,
2013-07-09 05:54:00,72.4,71.8,30.13,SSE,155,0.0,0.0,98,0.00,CLR,SCT,0.00,WeatherDisplay:10.37,2013-07-09 09:54:00,
2013-07-09 05:56:00,72.4,71.8,30.13,SSE,155,0.0,0.0,98,0.00,CLR,SCT,0.00,WeatherDisplay:10.37,2013-07-09 09:56:00,
2013-07-09 05:58:00,72.4,71.8,30.13,SSE,155,0.0,0.0,98,0.00,CLR,SCT,0.00,WeatherDisplay:10.37,2013-07-09 09:58:00,
2013-07-09 06:00:00,72.6,72.0,30.13,SW,219,0.0,0.0,98,0.00,CLR,SCT,0.00,WeatherDisplay:10.37,2013-07-09 10:00:00,
2013-07-09 06:01:00,72.7,72.1,30.13,SW,219,0.0,0.0,98,0.00,CLR,SCT,0.00,WeatherDisplay:10.37,2013-07-09 10:01:00,
2013-07-09 06:03:00,72.9,72.3,30.13,SW,219,0.0,0.0,98,0.00,CLR,SCT,0.00,WeatherDisplay:10.37,2013-07-09 10:03:00,
2013-07-09 06:05:00,73.1,72.5,30.13,SW,220,0.0,0.0,98,0.00,CLR,SCT,0.00,WeatherDisplay:10.37,2013-07-09 10:05:00,
2013-07-09 06:06:00,73.1,72.5,30.13,SW,219,0.0,0.0,98,0.00,CLR,SCT,0.00,WeatherDisplay:10.37,2013-07-09 10:06:00,
2013-07-09 06:07:00,73.1,72.5,30.13,SW,219,0.0,0.0,98,0.00,CLR,SCT,0.00,WeatherDisplay:10.37,2013-07-09 10:07:00,
2013-07-09 06:09:00,73.1,72.5,30.13,SW,220,0.0,0.0,98,0.00,CLR,SCT,0.00,WeatherDisplay:10.37,2013-07-09 10:09:00,
2013-07-09 06:10:00,73.1,72.5,30.13,SW,219,0.0,0.0,98,0.00,CLR,SCT,0.00,WeatherDisplay:10.37,2013-07-09 10:10:00,
2013-07-09 06:11:00,73.1,72.5,30.13,SW,220,0.0,0.0,98,0.00,CLR,SCT,0.00,WeatherDisplay:10.37,2013-07-09 10:11:00,
2013-07-09 06:15:00,73.1,72.5,30.13,SW,219,0.0,0.0,98,0.00,,SCT,0.00,WeatherDisplay:10.37,2013-07-09 10:15:00,
2013-07-09 06:16:00,73.0,72.4,30.13,SW,219,0.0,0.0,98,0.00,CLR,SCT,0.00,WeatherDisplay:10.37,2013-07-09 10:16:00,
2013-07-09 06:19:00,72.9,72.3,30.14,SW,219,0.0,0.0,98,0.00,CLR,SCT,0.00,WeatherDisplay:10.37,2013-07-09 10:19:00,
2013-07-09 06:20:00,72.9,72.3,30.14,SW,218,0.0,0.0,98,0.00,CLR,SCT,0.00,WeatherDisplay:10.37,2013-07-09 10:20:00,
2013-07-09 06:21:00,72.9,72.3,30.14,SW,219,0.0,0.0,98,0.00,CLR,SCT,0.00,WeatherDisplay:10.37,2013-07-09 10:21:00,
2013-07-09 06:22:00,72.9,72.3,30.14,SW,218,0.0,0.0,98,0.00,CLR,SCT,0.00,WeatherDisplay:10.37,2013-07-09 10:22:00,
2013-07-09 06:23:00,72.8,72.2,30.14,SW,219,0.0,0.0,98,0.00,CLR,SCT,0.00,WeatherDisplay:10.37,2013-07-09 10:23:00,
2013-07-09 06:25:00,72.8,72.2,30.14,SW,219,0.0,0.0,98,0.00,,SCT,0.00,WeatherDisplay:10.37,2013-07-09 10:25:00,
2013-07-09 06:27:00,72.8,72.2,30.14,SW,220,0.0,0.0,98,0.00,CLR,SCT,0.00,WeatherDisplay:10.37,2013-07-09 10:27:00,
2013-07-09 06:28:00,72.8,72.2,30.14,SW,219,0.0,0.0,98,0.00,CLR,SCT,0.00,WeatherDisplay:10.37,2013-07-09 10:28:00,
2013-07-09 06:29:00,72.7,72.1,30.14,SW,219,0.0,0.0,98,0.00,CLR,SCT,0.00,WeatherDisplay:10.37,2013-07-09 10:29:00,
2013-07-09 06:30:00,72.7,72.1,30.14,SW,219,0.0,0.0,98,0.00,CLR,SCT,0.00,WeatherDisplay:10.37,2013-07-09 10:30:00,
2013-07-09 06:32:00,72.7,72.1,30.14,SW,219,0.0,0.0,98,0.00,CLR,SCT,0.00,WeatherDisplay:10.37,2013-07-09 10:32:00,
2013-07-09 06:34:00,72.7,72.1,30.14,SW,219,0.0,0.0,98,0.00,CLR,SCT,0.00,WeatherDisplay:10.37,2013-07-09 10:34:00,
2013-07-09 06:35:00,72.7,72.1,30.14,SW,219,0.0,0.0,98,0.00,CLR,SCT,0.00,WeatherDisplay:10.37,2013-07-09 10:35:00,
2013-07-09 06:37:00,72.6,72.0,30.14,SW,219,0.0,0.0,98,0.00,CLR,SCT,0.00,WeatherDisplay:10.37,2013-07-09 10:37:00,
2013-07-09 06:39:00,72.6,72.0,30.14,SW,220,0.0,0.0,98,0.00,CLR,SCT,0.00,WeatherDisplay:10.37,2013-07-09 10:39:00,
2013-07-09 06:40:00,72.6,72.0,30.14,SW,220,0.0,0.0,98,0.00,CLR,SCT,0.00,WeatherDisplay:10.37,2013-07-09 10:40:00,
2013-07-09 06:43:00,72.5,71.9,30.14,SW,219,0.0,0.0,98,0.00,CLR,SCT,0.00,WeatherDisplay:10.37,2013-07-09 10:43:00,
2013-07-09 06:44:00,72.5,71.9,30.14,SW,219,0.0,0.0,98,0.00,CLR,SCT,0.00,WeatherDisplay:10.37,2013-07-09 10:44:00,
2013-07-09 06:45:00,72.5,71.9,30.14,SW,219,0.0,0.0,98,0.00,CLR,SCT,0.00,WeatherDisplay:10.37,2013-07-09 10:45:00,
2013-07-09 06:46:00,72.5,71.9,30.14,SW,219,0.0,0.0,98,0.00,CLR,SCT,0.00,WeatherDisplay:10.37,2013-07-09 10:46:00,
2013-07-09 06:48:00,72.5,71.9,30.14,SW,219,0.0,0.0,98,0.00,CLR,SCT,0.00,WeatherDisplay:10.37,2013-07-09 10:48:00,
2013-07-09 06:49:00,72.6,72.0,30.14,SW,220,0.0,0.0,98,0.00,CLR,SCT,0.00,WeatherDisplay:10.37,2013-07-09 10:49:00,
2013-07-09 06:50:00,72.5,71.9,30.14,SW,219,0.0,0.0,98,0.00,CLR,SCT,0.00,WeatherDisplay:10.37,2013-07-09 10:50:00,
2013-07-09 06:51:00,72.5,71.9,30.14,SW,220,0.0,0.0,98,0.00,CLR,SCT,0.00,WeatherDisplay:10.37,2013-07-09 10:51:00,
2013-07-09 06:52:00,72.5,71.9,30.14,SW,219,0.0,0.0,98,0.00,CLR,SCT,0.00,WeatherDisplay:10.37,2013-07-09 10:52:00,
2013-07-09 06:54:00,72.4,71.8,30.14,SW,219,0.0,0.0,98,0.00,CLR,SCT,0.00,WeatherDisplay:10.37,2013-07-09 10:54:00,
2013-07-09 06:55:00,72.4,71.8,30.14,SW,218,0.0,0.0,98,0.00,CLR,SCT,0.00,WeatherDisplay:10.37,2013-07-09 10:55:00,
2013-07-09 06:57:00,72.4,71.8,30.14,SW,220,0.0,0.0,98,0.00,CLR,SCT,0.00,WeatherDisplay:10.37,2013-07-09 10:57:00,
2013-07-09 07:00:00,72.5,71.9,30.14,SW,219,0.0,0.0,98,0.00,,SCT,0.00,WeatherDisplay:10.37,2013-07-09 11:00:00,
2013-07-09 07:01:00,72.5,71.9,30.14,SW,219,0.0,0.0,98,0.00,CLR,SCT,0.00,WeatherDisplay:10.37,2013-07-09 11:01:00,
2013-07-09 07:02:00,72.6,72.0,30.14,SW,220,0.0,0.0,98,0.00,CLR,SCT,0.00,WeatherDisplay:10.37,2013-07-09 11:02:00,
2013-07-09 07:03:00,72.6,72.0,30.14,SW,219,0.0,0.0,98,0.00,CLR,SCT,0.00,WeatherDisplay:10.37,2013-07-09 11:03:00,
2013-07-09 07:05:00,72.7,72.1,30.14,SW,219,0.0,0.0,98,0.00,CLR,SCT,0.00,WeatherDisplay:10.37,2013-07-09 11:05:00,
2013-07-09 07:07:00,72.9,72.3,30.14,SW,219,0.0,0.0,98,0.00,CLR,SCT,0.00,WeatherDisplay:10.37,2013-07-09 11:07:00,
2013-07-09 07:09:00,72.9,72.3,30.14,SW,219,0.0,0.0,98,0.00,CLR,SCT,0.00,WeatherDisplay:10.37,2013-07-09 11:09:00,
2013-07-09 07:10:00,73.0,72.4,30.14,SW,219,0.0,0.0,98,0.00,CLR,SCT,0.00,WeatherDisplay:10.37,2013-07-09 11:10:00,
2013-07-09 07:13:00,73.1,72.5,30.14,SW,219,0.0,0.0,98,0.00,CLR,SCT,0.00,WeatherDisplay:10.37,2013-07-09 11:13:00,
2013-07-09 07:14:00,73.2,72.6,30.14,SW,219,0.0,0.0,98,0.00,CLR,SCT,0.00,WeatherDisplay:10.37,2013-07-09 11:14:00,
2013-07-09 07:16:00,73.4,73.1,30.14,SW,219,0.0,0.0,99,0.00,CLR,SCT,0.00,WeatherDisplay:10.37,2013-07-09 11:16:00,
2013-07-09 07:19:00,73.7,73.4,30.14,SW,219,0.0,0.0,99,0.00,CLR,SCT,0.00,WeatherDisplay:10.37,2013-07-09 11:19:00,
2013-07-09 07:20:00,73.7,73.4,30.14,SW,219,0.0,0.0,99,0.00,,SCT,0.00,WeatherDisplay:10.37,2013-07-09 11:20:00,
2013-07-09 07:21:00,73.8,73.5,30.14,SW,219,0.0,0.0,99,0.00,CLR,SCT,0.00,WeatherDisplay:10.37,2013-07-09 11:21:00,
2013-07-09 07:22:00,73.9,73.6,30.14,SW,219,0.0,0.0,99,0.00,CLR,SCT,0.00,WeatherDisplay:10.37,2013-07-09 11:22:00,
2013-07-09 07:25:00,73.9,73.6,30.15,SW,219,0.0,0.0,99,0.00,,SCT,0.00,WeatherDisplay:10.37,2013-07-09 11:25:00,
2013-07-09 07:26:00,74.0,73.7,30.15,SW,219,0.0,0.0,99,0.00,CLR,SCT,0.00,WeatherDisplay:10.37,2013-07-09 11:26:00,
2013-07-09 07:28:00,74.2,73.9,30.15,SW,219,0.0,0.0,99,0.00,CLR,SCT,0.00,WeatherDisplay:10.37,2013-07-09 11:28:00,
2013-07-09 07:29:00,74.3,74.0,30.15,SW,218,0.0,0.0,99,0.00,CLR,SCT,0.00,WeatherDisplay:10.37,2013-07-09 11:29:00,
2013-07-09 07:31:00,74.5,74.2,30.15,SW,218,0.0,0.0,99,0.00,CLR,SCT,0.00,WeatherDisplay:10.37,2013-07-09 11:31:00,
2013-07-09 07:32:00,74.5,74.2,30.15,SW,219,0.0,0.0,99,0.00,CLR,SCT,0.00,WeatherDisplay:10.37,2013-07-09 11:32:00,
2013-07-09 07:34:00,74.7,74.4,30.15,SW,219,0.0,0.0,99,0.00,CLR,SCT,0.00,WeatherDisplay:10.37,2013-07-09 11:34:00,
2013-07-09 07:36:00,74.9,74.6,30.15,SW,219,0.0,0.0,99,0.00,CLR,SCT,0.00,WeatherDisplay:10.37,2013-07-09 11:36:00,
2013-07-09 07:37:00,75.0,74.7,30.15,SW,219,0.0,0.0,99,0.00,CLR,SCT,0.00,WeatherDisplay:10.37,2013-07-09 11:37:00,
2013-07-09 07:38:00,75.2,74.9,30.15,SW,219,0.0,0.0,99,0.00,CLR,SCT,0.00,WeatherDisplay:10.37,2013-07-09 11:38:00,
2013-07-09 07:41:00,75.7,75.4,30.15,SW,219,0.0,0.0,99,0.00,CLR,SCT,0.00,WeatherDisplay:10.37,2013-07-09 11:41:00,
2013-07-09 07:43:00,76.1,75.8,30.15,SW,219,0.0,0.0,99,0.00,CLR,SCT,0.00,WeatherDisplay:10.37,2013-07-09 11:43:00,
2013-07-09 07:44:00,76.2,75.9,30.15,SW,219,0.0,0.0,99,0.00,CLR,SCT,0.00,WeatherDisplay:10.37,2013-07-09 11:44:00,
2013-07-09 07:48:00,76.7,76.1,30.15,SW,219,0.0,0.0,98,0.00,CLR,SCT,0.00,WeatherDisplay:10.37,2013-07-09 11:48:00,
2013-07-09 07:49:00,76.9,76.3,30.15,SW,217,0.0,0.0,98,0.00,CLR,SCT,0.00,WeatherDisplay:10.37,2013-07-09 11:49:00,
2013-07-09 07:53:00,77.5,76.9,30.15,SW,217,0.0,0.0,98,0.00,CLR,SCT,0.00,WeatherDisplay:10.37,2013-07-09 11:53:00,
2013-07-09 07:54:00,77.8,77.2,30.15,SW,217,0.0,0.0,98,0.00,CLR,SCT,0.00,WeatherDisplay:10.37,2013-07-09 11:54:00,
2013-07-09 07:55:00,77.7,77.1,30.15,SW,218,0.0,0.0,98,0.00,,SCT,0.00,WeatherDisplay:10.37,2013-07-09 11:55:00,
2013-07-09 07:59:00,78.4,77.5,30.15,SW,217,0.0,0.0,97,0.00,CLR,SCT,0.00,WeatherDisplay:10.37,2013-07-09 11:59:00,
2013-07-09 08:00:00,78.4,77.5,30.15,SW,217,0.0,0.0,97,0.00,,SCT,0.00,WeatherDisplay:10.37,2013-07-09 12:00:00,
2013-07-09 08:02:00,78.9,77.7,30.15,SW,217,0.0,0.0,96,0.00,CLR,SCT,0.00,WeatherDisplay:10.37,2013-07-09 12:02:00,
2013-07-09 08:05:00,79.4,77.8,30.16,SSE,148,0.0,0.0,95,0.00,CLR,SCT,0.00,WeatherDisplay:10.37,2013-07-09 12:05:00,
2013-07-09 08:06:00,79.5,77.9,30.16,SSE,148,0.0,0.0,95,0.00,CLR,SCT,0.00,WeatherDisplay:10.37,2013-07-09 12:06:00,
2013-07-09 08:08:00,79.8,77.9,30.16,SSE,148,0.0,0.0,94,0.00,CLR,SCT,0.00,WeatherDisplay:10.37,2013-07-09 12:08:00,
2013-07-09 08:10:00,80.1,77.9,30.16,SE,142,1.1,0.0,93,0.00,CLR,SCT,0.00,WeatherDisplay:10.37,2013-07-09 12:10:00,
2013-07-09 08:11:00,80.2,77.7,30.16,SE,142,1.1,0.0,92,0.00,CLR,SCT,0.00,WeatherDisplay:10.37,2013-07-09 12:11:00,
2013-07-09 08:14:00,80.7,78.5,30.16,SE,142,0.0,0.0,93,0.00,CLR,SCT,0.00,WeatherDisplay:10.37,2013-07-09 12:14:00,
2013-07-09 08:15:00,80.8,78.6,30.16,SE,144,0.0,1.0,93,0.00,,SCT,0.00,WeatherDisplay:10.37,2013-07-09 12:15:00,
2013-07-09 08:16:00,81.1,78.2,30.16,SSE,166,0.0,0.0,91,0.00,CLR,SCT,0.00,WeatherDisplay:10.37,2013-07-09 12:16:00,
2013-07-09 08:20:00,81.6,78.0,30.16,ENE,69,3.5,3.5,89,0.00,CLR,SCT,0.00,WeatherDisplay:10.37,2013-07-09 12:20:00,
2013-07-09 08:21:00,81.8,78.2,30.16,ENE,73,0.0,0.0,89,0.00,CLR,SCT,0.00,WeatherDisplay:10.37,2013-07-09 12:21:00,
2013-07-09 08:23:00,82.1,78.2,30.16,ENE,74,0.0,0.0,88,0.00,CLR,SCT,0.00,WeatherDisplay:10.37,2013-07-09 12:23:00,
2013-07-09 08:24:00,82.1,78.2,30.16,NNE,22,0.0,0.2,88,0.00,CLR,SCT,0.00,WeatherDisplay:10.37,2013-07-09 12:24:00,
2013-07-09 08:25:00,82.3,78.0,30.16,SSW,204,1.1,1.1,87,0.00,CLR,SCT,0.00,WeatherDisplay:10.37,2013-07-09 12:25:00,
2013-07-09 08:26:00,82.3,78.0,30.16,SE,127,1.1,1.1,87,0.00,CLR,SCT,0.00,WeatherDisplay:10.37,2013-07-09 12:26:00,
2013-07-09 08:27:00,82.4,77.8,30.16,ESE,115,1.1,0.0,86,0.00,CLR,SCT,0.00,WeatherDisplay:10.37,2013-07-09 12:27:00,
2013-07-09 08:29:00,82.6,78.0,30.16,ESE,117,1.1,1.1,86,0.00,CLR,SCT,0.00,WeatherDisplay:10.37,2013-07-09 12:29:00,
2013-07-09 08:31:00,82.8,77.8,30.16,ESE,102,3.5,3.5,85,0.00,CLR,SCT,0.00,WeatherDisplay:10.37,2013-07-09 12:31:00,
2013-07-09 08:32:00,82.8,77.8,30.16,South,191,3.5,3.5,85,0.00,CLR,SCT,0.00,WeatherDisplay:10.37,2013-07-09 12:32:00,
2013-07-09 08:34:00,82.8,77.5,30.16,SE,146,1.1,1.1,84,0.00,CLR,SCT,0.00,WeatherDisplay:10.37,2013-07-09 12:34:00,
2013-07-09 08:36:00,82.9,77.6,30.16,South,188,2.3,2.3,84,0.00,CLR,SCT,0.00,WeatherDisplay:10.37,2013-07-09 12:36:00,
2013-07-09 08:37:00,82.9,77.2,30.16,SSE,150,3.5,3.5,83,0.00,CLR,SCT,0.00,WeatherDisplay:10.37,2013-07-09 12:37:00,
2013-07-09 08:40:00,82.8,77.1,30.17,SSE,148,2.3,2.3,83,0.00,CLR,SCT,0.00,WeatherDisplay:10.37,2013-07-09 12:40:00,
2013-07-09 08:43:00,83.0,77.7,30.17,SSE,150,0.0,0.0,84,0.00,CLR,SCT,0.00,WeatherDisplay:10.37,2013-07-09 12:43:00,
2013-07-09 08:44:00,83.0,77.7,30.17,SSE,150,0.0,0.0,84,0.00,CLR,SCT,0.00,WeatherDisplay:10.37,2013-07-09 12:44:00,
2013-07-09 08:45:00,83.2,77.9,30.17,SSE,148,0.0,0.0,84,0.00,CLR,SCT,0.00,WeatherDisplay:10.37,2013-07-09 12:45:00,
2013-07-09 08:46:00,83.2,77.9,30.17,SSE,148,0.0,0.0,84,0.00,CLR,SCT,0.00,WeatherDisplay:10.37,2013-07-09 12:46:00,
2013-07-09 08:49:00,83.8,78.1,30.17,ENE,61,2.0,2.0,83,0.00,CLR,SCT,0.00,WeatherDisplay:10.37,2013-07-09 12:49:00,
2013-07-09 08:50:00,83.8,77.7,30.17,ENE,61,2.3,2.3,82,0.00,CLR,SCT,0.00,WeatherDisplay:10.37,2013-07-09 12:50:00,
2013-07-09 08:51:00,83.9,77.4,30.17,NE,53,2.3,2.3,81,0.00,CLR,SCT,0.00,WeatherDisplay:10.37,2013-07-09 12:51:00,
2013-07-09 08:52:00,83.9,77.4,30.17,East,89,1.1,1.1,81,0.00,CLR,SCT,0.00,WeatherDisplay:10.37,2013-07-09 12:52:00,
2013-07-09 08:55:00,83.9,77.4,30.17,NE,47,2.3,2.3,81,0.00,CLR,SCT,0.00,WeatherDisplay:10.37,2013-07-09 12:55:00,
2013-07-09 08:56:00,84.0,77.5,30.17,ENE,58,1.1,1.1,81,0.00,CLR,SCT,0.00,WeatherDisplay:10.37,2013-07-09 12:56:00,
2013-07-09 08:57:00,84.0,77.5,30.17,South,191,1.1,1.1,81,0.00,CLR,SCT,0.00,WeatherDisplay:10.37,2013-07-09 12:57:00,
2013-07-09 08:59:00,84.2,77.7,30.17,SSE,160,1.1,1.1,81,0.00,CLR,SCT,0.00,WeatherDisplay:10.37,2013-07-09 12:59:00,
2013-07-09 09:00:00,84.4,77.9,30.17,SSE,148,1.1,0.0,81,0.00,CLR,SCT,0.00,WeatherDisplay:10.37,2013-07-09 13:00:00,
2013-07-09 09:01:00,84.5,78.0,30.17,ESE,118,0.0,0.0,81,0.00,CLR,SCT,0.00,WeatherDisplay:10.37,2013-07-09 13:01:00,
2013-07-09 09:02:00,84.6,77.7,30.17,ESE,108,1.1,1.1,80,0.00,CLR,SCT,0.00,WeatherDisplay:10.37,2013-07-09 13:02:00,
2013-07-09 09:06:00,85.2,78.3,30.17,West,259,1.1,0.0,80,0.00,CLR,SCT,0.00,WeatherDisplay:10.37,2013-07-09 13:06:00,
2013-07-09 09:07:00,85.5,78.6,30.17,West,259,0.0,0.0,80,0.00,CLR,SCT,0.00,WeatherDisplay:10.37,2013-07-09 13:07:00,
2013-07-09 09:08:00,85.6,78.3,30.17,West,259,0.0,0.0,79,0.00,CLR,SCT,0.00,WeatherDisplay:10.37,2013-07-09 13:08:00,
2013-07-09 09:09:00,85.8,77.8,30.17,West,259,0.0,0.0,77,0.00,CLR,SCT,0.00,WeatherDisplay:10.37,2013-07-09 13:09:00,
2013-07-09 09:10:00,85.9,77.8,30.17,West,259,0.0,0.0,77,0.00,CLR,SCT,0.00,WeatherDisplay:10.37,2013-07-09 13:10:00,
2013-07-09 09:12:00,86.2,77.7,30.17,SSE,168,2.3,2.3,76,0.00,CLR,SCT,0.00,WeatherDisplay:10.37,2013-07-09 13:12:00,
2013-07-09 09:13:00,86.3,77.4,30.17,SW,218,2.3,2.3,75,0.00,CLR,SCT,0.00,WeatherDisplay:10.37,2013-07-09 13:13:00,
2013-07-09 09:16:00,86.0,77.5,30.17,NE,40,2.3,2.3,76,0.00,CLR,SCT,0.00,WeatherDisplay:10.37,2013-07-09 13:16:00,
2013-07-09 09:17:00,85.9,77.5,30.17,SSE,162,1.1,1.1,76,0.00,CLR,SCT,0.00,WeatherDisplay:10.37,2013-07-09 13:17:00,
2013-07-09 09:18:00,85.9,77.8,30.17,SSE,162,1.1,1.1,77,0.00,CLR,SCT,0.00,WeatherDisplay:10.37,2013-07-09 13:18:00,
2013-07-09 09:21:00,86.0,77.5,30.17,NE,42,1.1,1.1,76,0.00,CLR,SCT,0.00,WeatherDisplay:10.37,2013-07-09 13:21:00,
2013-07-09 09:23:00,86.0,77.5,30.17,NE,39,1.1,0.0,76,0.00,CLR,SCT,0.00,WeatherDisplay:10.37,2013-07-09 13:23:00,
2013-07-09 09:27:00,86.5,77.6,30.17,NE,56,0.0,0.0,75,0.00,CLR,SCT,0.00,WeatherDisplay:10.37,2013-07-09 13:27:00,
2013-07-09 09:28:00,86.6,78.1,30.17,NE,55,0.0,0.0,76,0.00,CLR,SCT,0.00,WeatherDisplay:10.37,2013-07-09 13:28:00,
2013-07-09 09:29:00,86.6,77.7,30.17,NE,51,0.0,0.0,75,0.00,CLR,SCT,0.00,WeatherDisplay:10.37,2013-07-09 13:29:00,
2013-07-09 09:33:00,87.0,77.7,30.17,NE,49,0.0,0.0,74,0.00,CLR,SCT,0.00,WeatherDisplay:10.37,2013-07-09 13:33:00,
2013-07-09 09:34:00,87.2,77.9,30.17,NE,49,0.0,0.0,74,0.00,CLR,SCT,0.00,WeatherDisplay:10.37,2013-07-09 13:34:00,
2013-07-09 09:35:00,87.3,77.6,30.17,NE,49,1.0,1.0,73,0.00,CLR,SCT,0.00,WeatherDisplay:10.37,2013-07-09 13:35:00,
2013-07-09 09:36:00,87.3,77.2,30.17,NE,49,2.3,2.3,72,0.00,CLR,SCT,0.00,WeatherDisplay:10.37,2013-07-09 13:36:00,
2013-07-09 09:38:00,87.3,77.2,30.17,NE,49,1.1,0.0,72,0.00,CLR,SCT,0.00,WeatherDisplay:10.37,2013-07-09 13:38:00,
2013-07-09 09:39:00,87.2,76.2,30.17,NE,46,1.1,0.0,70,0.00,CLR,SCT,0.00,WeatherDisplay:10.37,2013-07-09 13:39:00,
2013-07-09 09:41:00,87.2,76.2,30.17,NE,53,2.3,2.3,70,0.00,CLR,SCT,0.00,WeatherDisplay:10.37,2013-07-09 13:41:00,
2013-07-09 09:46:00,87.3,76.3,30.17,East,81,2.3,2.3,70,0.00,CLR,SCT,0.00,WeatherDisplay:10.37,2013-07-09 13:46:00,
2013-07-09 09:47:00,87.3,75.9,30.17,ENE,67,1.1,1.1,69,0.00,CLR,SCT,0.00,WeatherDisplay:10.37,2013-07-09 13:47:00,
2013-07-09 09:51:00,87.2,75.3,30.17,NNE,33,2.3,2.3,68,0.00,CLR,SCT,0.00,WeatherDisplay:10.37,2013-07-09 13:51:00,
2013-07-09 09:53:00,87.3,75.9,30.17,NNE,32,0.0,0.0,69,0.00,CLR,SCT,0.00,WeatherDisplay:10.37,2013-07-09 13:53:00,
2013-07-09 09:55:00,87.5,75.6,30.17,NE,49,1.1,0.0,68,0.00,CLR,SCT,0.00,WeatherDisplay:10.37,2013-07-09 13:55:00,
2013-07-09 09:56:00,87.6,75.7,30.17,NE,49,1.1,0.0,68,0.00,CLR,SCT,0.00,WeatherDisplay:10.37,2013-07-09 13:56:00,
2013-07-09 09:57:00,87.7,75.8,30.17,SSW,207,0.0,0.0,68,0.00,CLR,SCT,0.00,WeatherDisplay:10.37,2013-07-09 13:57:00,
2013-07-09 09:58:00,87.7,75.8,30.17,ESE,107,3.5,3.5,68,0.00,CLR,SCT,0.00,WeatherDisplay:10.37,2013-07-09 13:58:00,
2013-07-09 10:00:00,88.0,76.5,30.17,SSE,156,1.1,1.1,69,0.00,CLR,SCT,0.00,WeatherDisplay:10.37,2013-07-09 14:00:00,
2013-07-09 10:02:00,88.1,75.8,30.17,NE,49,1.1,1.1,67,0.00,CLR,SCT,0.00,WeatherDisplay:10.37,2013-07-09 14:02:00,
2013-07-09 10:03:00,88.0,75.2,30.17,NE,50,1.1,1.1,66,0.00,CLR,SCT,0.00,WeatherDisplay:10.37,2013-07-09 14:03:00,
2013-07-09 10:05:00,87.9,76.0,30.17,NE,47,3.5,3.5,68,0.00,CLR,SCT,0.00,WeatherDisplay:10.37,2013-07-09 14:05:00,
2013-07-09 10:07:00,87.8,75.5,30.17,NE,40,1.1,1.1,67,0.00,CLR,SCT,0.00,WeatherDisplay:10.37,2013-07-09 14:07:00,
2013-07-09 10:08:00,87.8,75.5,30.17,NE,36,1.1,1.1,67,0.00,CLR,SCT,0.00,WeatherDisplay:10.37,2013-07-09 14:08:00,
2013-07-09 10:09:00,87.7,75.4,30.17,ENE,71,2.0,2.0,67,0.00,CLR,SCT,0.00,WeatherDisplay:10.37,2013-07-09 14:09:00,
2013-07-09 10:13:00,87.2,75.3,30.17,NNE,30,2.3,2.3,68,0.00,CLR,SCT,0.00,WeatherDisplay:10.37,2013-07-09 14:13:00,
2013-07-09 10:14:00,87.2,75.3,30.17,NNE,30,1.1,1.1,68,0.00,CLR,SCT,0.00,WeatherDisplay:10.37,2013-07-09 14:14:00,
2013-07-09 10:15:00,87.2,75.8,30.17,NNE,27,1.1,1.1,69,0.00,CLR,SCT,0.00,WeatherDisplay:10.37,2013-07-09 14:15:00,
2013-07-09 10:19:00,87.4,75.1,30.17,ENE,59,1.1,1.1,67,0.00,CLR,SCT,0.00,WeatherDisplay:10.37,2013-07-09 14:19:00,
2013-07-09 10:20:00,87.4,75.1,30.17,ENE,57,1.1,1.1,67,0.00,CLR,SCT,0.00,WeatherDisplay:10.37,2013-07-09 14:20:00,
2013-07-09 10:22:00,87.5,75.2,30.17,NE,55,0.0,0.5,67,0.00,CLR,SCT,0.00,WeatherDisplay:10.37,2013-07-09 14:22:00,
2013-07-09 10:25:00,87.6,75.7,30.17,NNE,24,1.1,0.0,68,0.00,CLR,SCT,0.00,WeatherDisplay:10.37,2013-07-09 14:25:00,
2013-07-09 10:26:00,87.7,75.8,30.17,NE,49,1.1,1.1,68,0.00,CLR,SCT,0.00,WeatherDisplay:10.37,2013-07-09 14:26:00,
2013-07-09 10:27:00,87.7,75.8,30.17,ENE,67,3.0,3.0,68,0.00,CLR,SCT,0.00,WeatherDisplay:10.37,2013-07-09 14:27:00,
2013-07-09 10:31:00,87.6,76.2,30.17,ENE,64,1.1,1.1,69,0.00,CLR,SCT,0.00,WeatherDisplay:10.37,2013-07-09 14:31:00,
2013-07-09 10:32:00,87.6,75.7,30.17,North,352,3.5,3.5,68,0.00,CLR,SCT,0.00,WeatherDisplay:10.37,2013-07-09 14:32:00,
2013-07-09 10:34:00,87.6,74.8,30.17,NE,34,2.3,2.3,66,0.00,CLR,SCT,0.00,WeatherDisplay:10.37,2013-07-09 14:34:00,
2013-07-09 10:36:00,87.4,75.1,30.17,South,186,2.3,2.3,67,0.00,CLR,SCT,0.00,WeatherDisplay:10.37,2013-07-09 14:36:00,
2013-07-09 10:38:00,87.4,76.0,30.17,South,188,1.1,0.0,69,0.00,CLR,SCT,0.00,WeatherDisplay:10.37,2013-07-09 14:38:00,
2013-07-09 10:39:00,87.5,75.6,30.17,South,188,0.0,0.0,68,0.00,CLR,SCT,0.00,WeatherDisplay:10.37,2013-07-09 14:39:00,
2013-07-09 10:40:00,87.5,75.6,30.17,East,84,0.0,4.0,68,0.00,CLR,SCT,0.00,WeatherDisplay:10.37,2013-07-09 14:40:00,
2013-07-09 10:43:00,87.8,75.9,30.17,NNE,25,2.3,2.3,68,0.00,CLR,SCT,0.00,WeatherDisplay:10.37,2013-07-09 14:43:00,
2013-07-09 10:44:00,87.8,75.9,30.17,NNE,33,1.0,1.0,68,0.00,CLR,SCT,0.00,WeatherDisplay:10.37,2013-07-09 14:44:00,
2013-07-09 10:45:00,87.8,75.5,30.17,NE,49,3.5,3.5,67,0.00,CLR,SCT,0.00,WeatherDisplay:10.37,2013-07-09 14:45:00,
2013-07-09 10:47:00,88.0,75.7,30.17,NE,44,1.1,0.0,67,0.00,CLR,SCT,0.00,WeatherDisplay:10.37,2013-07-09 14:47:00,
2013-07-09 10:49:00,88.2,75.9,30.17,SE,145,2.3,2.3,67,0.00,CLR,SCT,0.00,WeatherDisplay:10.37,2013-07-09 14:49:00,
2013-07-09 10:50:00,88.4,76.0,30.17,NE,53,1.1,1.1,67,0.00,CLR,SCT,0.00,WeatherDisplay:10.37,2013-07-09 14:50:00,
2013-07-09 10:52:00,88.4,74.7,30.17,NE,44,2.0,2.0,64,0.00,CLR,SCT,0.00,WeatherDisplay:10.37,2013-07-09 14:52:00,
2013-07-09 10:53:00,88.4,74.2,30.17,NE,37,1.1,1.1,63,0.00,CLR,SCT,0.00,WeatherDisplay:10.37,2013-07-09 14:53:00,
2013-07-09 10:54:00,88.4,75.1,30.17,South,177,0.0,0.7,65,0.00,CLR,SCT,0.00,WeatherDisplay:10.37,2013-07-09 14:54:00,
2013-07-09 10:57:00,88.5,75.2,30.17,NE,34,2.3,2.3,65,0.00,CLR,SCT,0.00,WeatherDisplay:10.37,2013-07-09 14:57:00,
2013-07-09 10:58:00,88.5,74.8,30.17,NNE,30,1.1,1.1,64,0.00,CLR,SCT,0.00,WeatherDisplay:10.37,2013-07-09 14:58:00,
2013-07-09 10:59:00,88.4,75.1,30.17,NNE,30,0.0,0.0,65,0.00,CLR,SCT,0.00,WeatherDisplay:10.37,2013-07-09 14:59:00,
2013-07-09 11:01:00,88.5,75.2,30.17,North,354,2.3,2.3,65,0.00,CLR,SCT,0.00,WeatherDisplay:10.37,2013-07-09 15:01:00,
2013-07-09 11:03:00,88.5,75.2,30.17,NE,43,1.1,0.0,65,0.00,CLR,SCT,0.00,WeatherDisplay:10.37,2013-07-09 15:03:00,
2013-07-09 11:04:00,88.6,75.8,30.17,NE,39,2.0,2.0,66,0.00,CLR,SCT,0.00,WeatherDisplay:10.37,2013-07-09 15:04:00,
2013-07-09 11:07:00,88.4,74.7,30.17,NNE,29,0.0,0.0,64,0.00,CLR,SCT,0.00,WeatherDisplay:10.37,2013-07-09 15:07:00,
2013-07-09 11:09:00,88.3,74.6,30.17,NE,50,1.1,1.1,64,0.00,CLR,SCT,0.00,WeatherDisplay:10.37,2013-07-09 15:09:00,
2013-07-09 11:10:00,88.3,74.6,30.17,NNE,27,0.0,1.0,64,0.00,CLR,SCT,0.00,WeatherDisplay:10.37,2013-07-09 15:10:00,
2013-07-09 11:14:00,87.9,75.1,30.17,NE,43,3.5,3.5,66,0.00,CLR,SCT,0.00,WeatherDisplay:10.37,2013-07-09 15:14:00,
2013-07-09 11:15:00,87.9,75.1,30.17,NE,44,1.0,4.0,66,0.00,CLR,SCT,0.00,WeatherDisplay:10.37,2013-07-09 15:15:00,
2013-07-09 11:16:00,87.8,73.6,30.17,NE,41,1.1,1.1,63,0.00,CLR,SCT,0.00,WeatherDisplay:10.37,2013-07-09 15:16:00,
2013-07-09 11:20:00,88.2,75.9,30.17,NNE,12,2.3,2.3,67,0.00,CLR,SCT,0.00,WeatherDisplay:10.37,2013-07-09 15:20:00,
2013-07-09 11:21:00,88.2,74.9,30.17,NNE,15,1.1,1.1,65,0.00,CLR,SCT,0.00,WeatherDisplay:10.37,2013-07-09 15:21:00,
2013-07-09 11:22:00,88.3,75.0,30.17,NNE,14,1.1,1.1,65,0.00,CLR,SCT,0.00,WeatherDisplay:10.37,2013-07-09 15:22:00,
2013-07-09 11:26:00,88.5,75.2,30.18,NNW,341,2.3,2.3,65,0.00,CLR,SCT,0.00,WeatherDisplay:10.37,2013-07-09 15:26:00,
2013-07-09 11:27:00,88.5,74.8,30.18,ESE,121,3.0,0.0,64,0.00,CLR,SCT,0.00,WeatherDisplay:10.37,2013-07-09 15:27:00,
2013-07-09 11:28:00,88.6,74.9,30.18,East,92,3.5,3.5,64,0.00,CLR,SCT,0.00,WeatherDisplay:10.37,2013-07-09 15:28:00,
2013-07-09 11:31:00,89.0,75.2,30.17,NE,39,2.3,2.3,64,0.00,CLR,SCT,0.00,WeatherDisplay:10.37,2013-07-09 15:31:00,
2013-07-09 11:32:00,89.1,75.3,30.17,South,172,4.0,4.0,64,0.00,CLR,SCT,0.00,WeatherDisplay:10.37,2013-07-09 15:32:00,
2013-07-09 11:33:00,89.1,74.9,30.17,SSE,148,3.5,3.5,63,0.00,CLR,SCT,0.00,WeatherDisplay:10.37,2013-07-09 15:33:00,
2013-07-09 11:35:00,89.1,75.3,30.17,ENE,61,1.1,1.1,64,0.00,CLR,SCT,0.00,WeatherDisplay:10.37,2013-07-09 15:35:00,
2013-07-09 11:37:00,89.1,75.3,30.18,ENE,64,1.1,1.1,64,0.00,CLR,SCT,0.00,WeatherDisplay:10.37,2013-07-09 15:37:00,
2013-07-09 11:38:00,89.1,75.8,30.18,East,96,1.1,0.0,65,0.00,CLR,SCT,0.00,WeatherDisplay:10.37,2013-07-09 15:38:00,
2013-07-09 11:39:00,89.1,74.9,30.18,SSW,194,3.5,3.5,63,0.00,CLR,SCT,0.00,WeatherDisplay:10.37,2013-07-09 15:39:00,
2013-07-09 11:40:00,89.2,74.5,30.18,WSW,243,3.5,3.5,62,0.00,CLR,SCT,0.00,WeatherDisplay:10.37,2013-07-09 15:40:00,
2013-07-09 11:42:00,89.4,75.6,30.18,East,91,1.1,1.1,64,0.00,CLR,SCT,0.00,WeatherDisplay:10.37,2013-07-09 15:42:00,
2013-07-09 11:43:00,89.5,75.7,30.18,NE,45,2.3,2.3,64,0.00,CLR,SCT,0.00,WeatherDisplay:10.37,2013-07-09 15:43:00,
2013-07-09 11:48:00,89.5,75.7,30.18,NNE,14,1.1,0.0,64,0.00,CLR,SCT,0.00,WeatherDisplay:10.37,2013-07-09 15:48:00,
2013-07-09 11:49:00,89.5,75.7,30.18,NE,42,1.1,1.1,64,0.00,CLR,SCT,0.00,WeatherDisplay:10.37,2013-07-09 15:49:00,
2013-07-09 11:50:00,89.6,75.8,30.18,North,354,3.5,3.5,64,0.00,CLR,SCT,0.00,WeatherDisplay:10.37,2013-07-09 15:50:00,
2013-07-09 11:52:00,89.7,75.9,30.18,NE,44,1.0,1.0,64,0.00,CLR,SCT,0.00,WeatherDisplay:10.37,2013-07-09 15:52:00,
2013-07-09 11:54:00,89.9,75.6,30.17,NNW,345,3.5,3.5,63,0.00,CLR,SCT,0.00,WeatherDisplay:10.37,2013-07-09 15:54:00,
2013-07-09 11:55:00,89.9,74.6,30.18,NNW,333,3.5,3.5,61,0.00,CLR,SCT,0.00,WeatherDisplay:10.37,2013-07-09 15:55:00,
2013-07-09 11:57:00,89.8,75.0,30.18,WSW,249,1.1,1.1,62,0.00,CLR,SCT,0.00,WeatherDisplay:10.37,2013-07-09 15:57:00,
2013-07-09 11:58:00,89.8,75.0,30.18,SSW,193,2.0,2.0,62,0.00,CLR,SCT,0.00,WeatherDisplay:10.37,2013-07-09 15:58:00,
2013-07-09 12:00:00,89.9,75.1,30.18,ENE,58,1.0,2.0,62,0.00,CLR,SCT,0.00,WeatherDisplay:10.37,2013-07-09 16:00:00,
2013-07-09 12:02:00,90.3,74.5,30.18,ENE,67,3.5,3.5,60,0.00,CLR,SCT,0.00,WeatherDisplay:10.37,2013-07-09 16:02:00,
2013-07-09 12:04:00,90.3,74.0,30.18,NE,36,3.5,3.5,59,0.00,CLR,SCT,0.00,WeatherDisplay:10.37,2013-07-09 16:04:00,
2013-07-09 12:05:00,90.1,74.3,30.18,NNE,27,3.5,0.0,60,0.00,CLR,SCT,0.00,WeatherDisplay:10.37,2013-07-09 16:05:00,
2013-07-09 12:06:00,90.0,74.2,30.18,NNE,25,1.1,0.0,60,0.00,CLR,SCT,0.00,WeatherDisplay:10.37,2013-07-09 16:06:00,
2013-07-09 12:07:00,90.0,74.7,30.17,NE,46,2.3,2.3,61,0.00,CLR,SCT,0.00,WeatherDisplay:10.37,2013-07-09 16:07:00,
2013-07-09 12:08:00,90.0,75.2,30.17,NE,49,2.0,2.0,62,0.00,CLR,SCT,0.00,WeatherDisplay:10.37,2013-07-09 16:08:00,
2013-07-09 12:09:00,89.9,73.7,30.17,East,90,2.3,2.3,59,0.00,CLR,SCT,0.00,WeatherDisplay:10.37,2013-07-09 16:09:00,
2013-07-09 12:11:00,89.8,74.1,30.17,ENE,58,0.0,0.0,60,0.00,CLR,SCT,0.00,WeatherDisplay:10.37,2013-07-09 16:11:00,
2013-07-09 12:12:00,89.8,73.6,30.17,NNE,19,2.3,2.3,59,0.00,CLR,SCT,0.00,WeatherDisplay:10.37,2013-07-09 16:12:00,
2013-07-09 12:13:00,89.7,74.0,30.18,NNW,327,3.5,3.5,60,0.00,CLR,SCT,0.00,WeatherDisplay:10.37,2013-07-09 16:13:00,
2013-07-09 12:15:00,89.7,74.5,30.18,NE,49,1.0,3.0,61,0.00,CLR,SCT,0.00,WeatherDisplay:10.37,2013-07-09 16:15:00,
2013-07-09 12:17:00,89.9,75.1,30.17,ENE,75,3.5,3.5,62,0.00,CLR,SCT,0.00,WeatherDisplay:10.37,2013-07-09 16:17:00,
2013-07-09 12:19:00,90.1,74.8,30.17,ENE,61,1.1,1.1,61,0.00,CLR,SCT,0.00,WeatherDisplay:10.37,2013-07-09 16:19:00,
2013-07-09 12:20:00,90.1,75.3,30.17,ENE,59,1.0,4.0,62,0.00,CLR,SCT,0.00,WeatherDisplay:10.37,2013-07-09 16:20:00,
2013-07-09 12:23:00,90.4,75.1,30.17,NNE,23,2.3,2.3,61,0.00,CLR,SCT,0.00,WeatherDisplay:10.37,2013-07-09 16:23:00,
2013-07-09 12:24:00,90.5,74.7,30.17,North,358,2.3,2.3,60,0.00,CLR,SCT,0.00,WeatherDisplay:10.37,2013-07-09 16:24:00,
2013-07-09 12:25:00,90.5,73.7,30.17,SE,143,6.9,6.9,58,0.00,CLR,SCT,0.00,WeatherDisplay:10.37,2013-07-09 16:25:00,
2013-07-09 12:26:00,90.5,73.7,30.17,South,183,3.5,3.5,58,0.00,CLR,SCT,0.00,WeatherDisplay:10.37,2013-07-09 16:26:00,
2013-07-09 12:29:00,90.5,74.2,30.17,ENE,58,1.1,0.0,59,0.00,CLR,SCT,0.00,WeatherDisplay:10.37,2013-07-09 16:29:00,
2013-07-09 12:30:00,90.4,74.1,30.17,North,352,1.1,1.1,59,0.00,CLR,SCT,0.00,WeatherDisplay:10.37,2013-07-09 16:30:00,
2013-07-09 12:32:00,90.3,74.5,30.17,East,96,3.5,3.5,60,0.00,CLR,SCT,0.00,WeatherDisplay:10.37,2013-07-09 16:32:00,
2013-07-09 12:33:00,90.4,74.6,30.17,NNE,27,3.5,3.5,60,0.00,CLR,SCT,0.00,WeatherDisplay:10.37,2013-07-09 16:33:00,
2013-07-09 12:36:00,90.4,74.1,30.17,NE,55,2.3,0.0,59,0.00,CLR,SCT,0.00,WeatherDisplay:10.37,2013-07-09 16:36:00,
2013-07-09 12:37:00,90.4,74.1,30.17,NE,53,1.1,0.0,59,0.00,CLR,SCT,0.00,WeatherDisplay:10.37,2013-07-09 16:37:00,
2013-07-09 12:38:00,90.4,74.6,30.17,East,94,1.1,1.1,60,0.00,CLR,SCT,0.00,WeatherDisplay:10.37,2013-07-09 16:38:00,
2013-07-09 12:39:00,90.4,74.6,30.17,NNE,18,2.3,2.3,60,0.00,CLR,SCT,0.00,WeatherDisplay:10.37,2013-07-09 16:39:00,
2013-07-09 12:41:00,90.6,74.3,30.16,NE,37,3.5,3.5,59,0.00,CLR,SCT,0.00,WeatherDisplay:10.37,2013-07-09 16:41:00,
2013-07-09 12:42:00,90.6,73.3,30.17,NE,37,2.3,2.3,57,0.00,CLR,SCT,0.00,WeatherDisplay:10.37,2013-07-09 16:42:00,
2013-07-09 12:44:00,90.9,74.1,30.16,SE,137,2.3,2.3,58,0.00,CLR,SCT,0.00,WeatherDisplay:10.37,2013-07-09 16:44:00,
2013-07-09 12:45:00,91.0,74.7,30.17,SE,136,0.0,0.0,59,0.00,CLR,SCT,0.00,WeatherDisplay:10.37,2013-07-09 16:45:00,
2013-07-09 12:47:00,91.2,74.4,30.17,SE,133,3.5,3.5,58,0.00,CLR,SCT,0.00,WeatherDisplay:10.37,2013-07-09 16:47:00,
2013-07-09 12:49:00,91.4,75.1,30.16,SE,138,3.5,3.5,59,0.00,CLR,SCT,0.00,WeatherDisplay:10.37,2013-07-09 16:49:00,
2013-07-09 12:50:00,91.6,74.7,30.16,ENE,70,3.5,3.5,58,0.00,CLR,SCT,0.00,WeatherDisplay:10.37,2013-07-09 16:50:00,
2013-07-09 12:54:00,91.7,74.3,30.16,NNE,25,2.3,2.3,57,0.00,CLR,SCT,0.00,WeatherDisplay:10.37,2013-07-09 16:54:00,
2013-07-09 12:55:00,91.7,73.8,30.16,NE,43,3.5,3.5,56,0.00,CLR,SCT,0.00,WeatherDisplay:10.37,2013-07-09 16:55:00,
2013-07-09 12:57:00,91.6,74.7,30.16,NNE,18,1.1,1.1,58,0.00,CLR,SCT,0.00,WeatherDisplay:10.37,2013-07-09 16:57:00,
2013-07-09 12:58:00,91.6,74.7,30.16,NNE,18,1.1,1.1,58,0.00,CLR,SCT,0.00,WeatherDisplay:10.37,2013-07-09 16:58:00,
2013-07-09 13:01:00,91.5,73.6,30.16,NE,37,2.3,2.3,56,0.00,CLR,SCT,0.00,WeatherDisplay:10.37,2013-07-09 17:01:00,
2013-07-09 13:02:00,91.5,74.1,30.16,ENE,71,3.0,3.0,57,0.00,CLR,SCT,0.00,WeatherDisplay:10.37,2013-07-09 17:02:00,
2013-07-09 13:03:00,91.5,73.6,30.16,East,98,3.5,3.5,56,0.00,CLR,SCT,0.00,WeatherDisplay:10.37,2013-07-09 17:03:00,
2013-07-09 13:05:00,91.6,73.7,30.16,NE,49,2.0,6.0,56,0.00,CLR,SCT,0.00,WeatherDisplay:10.37,2013-07-09 17:05:00,
2013-07-09 13:06:00,91.7,73.8,30.16,SE,125,4.6,4.6,56,0.00,CLR,SCT,0.00,WeatherDisplay:10.37,2013-07-09 17:06:00,
2013-07-09 13:07:00,91.8,74.9,30.16,NE,36,4.6,4.6,58,0.00,CLR,SCT,0.00,WeatherDisplay:10.37,2013-07-09 17:07:00,
2013-07-09 13:08:00,91.8,74.9,30.16,NE,49,2.3,2.3,58,0.00,CLR,SCT,0.00,WeatherDisplay:10.37,2013-07-09 17:08:00,
2013-07-09 13:09:00,91.9,75.5,30.16,NE,53,4.6,4.6,59,0.00,CLR,SCT,0.00,WeatherDisplay:10.37,2013-07-09 17:09:00,
2013-07-09 13:11:00,91.9,74.0,30.16,NE,56,3.5,3.5,56,0.00,CLR,SCT,0.00,WeatherDisplay:10.37,2013-07-09 17:11:00,
2013-07-09 13:13:00,91.9,74.5,30.16,NNE,18,2.3,2.3,57,0.00,CLR,SCT,0.00,WeatherDisplay:10.37,2013-07-09 17:13:00,
2013-07-09 13:14:00,92.0,75.6,30.16,North,10,1.1,1.1,59,0.00,CLR,SCT,0.00,WeatherDisplay:10.37,2013-07-09 17:14:00,
2013-07-09 13:17:00,92.2,74.8,30.16,ENE,58,1.1,1.1,57,0.00,CLR,SCT,0.00,WeatherDisplay:10.37,2013-07-09 17:17:00,
2013-07-09 13:19:00,92.2,74.8,30.15,East,84,4.6,4.6,57,0.00,CLR,SCT,0.00,WeatherDisplay:10.37,2013-07-09 17:19:00,
2013-07-09 13:20:00,92.3,74.3,30.16,East,89,3.5,3.5,56,0.00,CLR,SCT,0.00,WeatherDisplay:10.37,2013-07-09 17:20:00,
2013-07-09 13:21:00,92.4,75.5,30.15,NE,56,3.5,3.5,58,0.00,CLR,SCT,0.00,WeatherDisplay:10.37,2013-07-09 17:21:00,
2013-07-09 13:23:00,92.4,75.0,30.15,NNW,343,5.8,5.8,57,0.00,CLR,SCT,0.00,WeatherDisplay:10.37,2013-07-09 17:23:00,
2013-07-09 13:25:00,92.3,74.9,30.15,SSE,158,2.3,0.0,57,0.00,CLR,SCT,0.00,WeatherDisplay:10.37,2013-07-09 17:25:00,
2013-07-09 13:26:00,92.3,74.3,30.15,SW,214,5.8,5.8,56,0.00,CLR,SCT,0.00,WeatherDisplay:10.37,2013-07-09 17:26:00,
2013-07-09 13:27:00,92.4,74.4,30.15,NE,40,3.5,3.5,56,0.00,CLR,SCT,0.00,WeatherDisplay:10.37,2013-07-09 17:27:00,
2013-07-09 13:28:00,92.3,74.3,30.15,NNE,32,3.5,3.5,56,0.00,CLR,SCT,0.00,WeatherDisplay:10.37,2013-07-09 17:28:00,
2013-07-09 13:29:00,92.3,75.4,30.15,NE,54,1.1,1.1,58,0.00,CLR,SCT,0.00,WeatherDisplay:10.37,2013-07-09 17:29:00,
2013-07-09 13:30:00,92.2,74.2,30.15,ENE,63,2.3,2.3,56,0.00,CLR,SCT,0.00,WeatherDisplay:10.37,2013-07-09 17:30:00,
2013-07-09 13:31:00,92.1,74.7,30.15,SSW,212,2.3,2.3,57,0.00,CLR,SCT,0.00,WeatherDisplay:10.37,2013-07-09 17:31:00,
2013-07-09 13:34:00,92.0,74.6,30.15,NE,49,1.1,1.1,57,0.00,CLR,SCT,0.00,WeatherDisplay:10.37,2013-07-09 17:34:00,
2013-07-09 13:35:00,92.0,74.6,30.15,ENE,63,4.0,4.0,57,0.00,CLR,SCT,0.00,WeatherDisplay:10.37,2013-07-09 17:35:00,
2013-07-09 13:37:00,91.9,75.0,30.15,North,8,1.1,1.1,58,0.00,CLR,SCT,0.00,WeatherDisplay:10.37,2013-07-09 17:37:00,
2013-07-09 13:41:00,91.7,74.8,30.15,ENE,74,3.5,3.5,58,0.00,CLR,SCT,0.00,WeatherDisplay:10.37,2013-07-09 17:41:00,
2013-07-09 13:42:00,91.8,74.4,30.15,NE,39,3.5,3.5,57,0.00,CLR,SCT,0.00,WeatherDisplay:10.37,2013-07-09 17:42:00,
2013-07-09 13:43:00,91.9,75.5,30.15,NNE,13,3.5,3.5,59,0.00,CLR,SCT,0.00,WeatherDisplay:10.37,2013-07-09 17:43:00,
2013-07-09 13:44:00,91.9,75.0,30.15,NW,312,3.5,3.5,58,0.00,CLR,SCT,0.00,WeatherDisplay:10.37,2013-07-09 17:44:00,
2013-07-09 13:46:00,91.7,73.8,30.14,NNE,32,1.1,1.1,56,0.00,CLR,SCT,0.00,WeatherDisplay:10.37,2013-07-09 17:46:00,
2013-07-09 13:48:00,91.5,74.1,30.14,NE,45,1.1,1.1,57,0.00,CLR,SCT,0.00,WeatherDisplay:10.37,2013-07-09 17:48:00,
2013-07-09 13:49:00,91.3,74.4,30.15,NNW,339,3.5,3.5,58,0.00,CLR,SCT,0.00,WeatherDisplay:10.37,2013-07-09 17:49:00,
2013-07-09 13:50:00,91.3,74.4,30.15,NE,38,1.0,3.0,58,0.00,CLR,SCT,0.00,WeatherDisplay:10.37,2013-07-09 17:50:00,
2013-07-09 13:52:00,91.4,74.0,30.15,East,91,1.1,0.0,57,0.00,CLR,SCT,0.00,WeatherDisplay:10.37,2013-07-09 17:52:00,
2013-07-09 13:53:00,91.5,74.1,30.15,NNE,25,1.0,1.0,57,0.00,CLR,SCT,0.00,WeatherDisplay:10.37,2013-07-09 17:53:00,
2013-07-09 13:54:00,91.7,74.8,30.15,North,5,1.1,0.0,58,0.00,CLR,SCT,0.00,WeatherDisplay:10.37,2013-07-09 17:54:00,
2013-07-09 13:55:00,91.7,74.8,30.14,NNE,27,1.1,1.1,58,0.00,CLR,SCT,0.00,WeatherDisplay:10.37,2013-07-09 17:55:00,
2013-07-09 13:56:00,91.8,74.9,30.14,SSE,157,2.3,2.3,58,0.00,CLR,SCT,0.00,WeatherDisplay:10.37,2013-07-09 17:56:00,
2013-07-09 13:58:00,91.9,74.5,30.14,South,184,3.5,3.5,57,0.00,CLR,SCT,0.00,WeatherDisplay:10.37,2013-07-09 17:58:00,
2013-07-09 13:59:00,92.0,74.1,30.14,SE,130,3.5,3.5,56,0.00,CLR,SCT,0.00,WeatherDisplay:10.37,2013-07-09 17:59:00,
2013-07-09 14:00:00,92.0,74.6,30.14,WNW,288,4.6,4.6,57,0.00,CLR,SCT,0.00,WeatherDisplay:10.37,2013-07-09 18:00:00,
2013-07-09 14:01:00,92.0,74.6,30.14,NNE,24,3.5,0.0,57,0.00,CLR,SCT,0.00,WeatherDisplay:10.37,2013-07-09 18:01:00,
2013-07-09 14:04:00,92.1,75.2,30.14,NE,53,2.3,2.3,58,0.00,CLR,SCT,0.00,WeatherDisplay:10.37,2013-07-09 18:04:00,
2013-07-09 14:05:00,92.0,74.6,30.14,NE,49,1.0,4.0,57,0.00,CLR,SCT,0.00,WeatherDisplay:10.37,2013-07-09 18:05:00,
2013-07-09 14:06:00,91.8,74.4,30.14,North,350,1.1,1.1,57,0.00,CLR,SCT,0.00,WeatherDisplay:10.37,2013-07-09 18:06:00,
2013-07-09 14:10:00,91.6,74.7,30.14,NW,316,1.1,1.1,58,0.00,CLR,SCT,0.00,WeatherDisplay:10.37,2013-07-09 18:10:00,
2013-07-09 14:11:00,91.5,75.1,30.14,North,360,2.3,2.3,59,0.00,CLR,SCT,0.00,WeatherDisplay:10.37,2013-07-09 18:11:00,
2013-07-09 14:15:00,91.4,75.0,30.14,North,1,0.0,2.0,59,0.00,CLR,SCT,0.00,WeatherDisplay:10.37,2013-07-09 18:15:00,
2013-07-09 14:16:00,91.3,74.4,30.14,SE,145,3.5,3.5,58,0.00,CLR,SCT,0.00,WeatherDisplay:10.37,2013-07-09 18:16:00,
2013-07-09 14:17:00,91.3,74.4,30.14,North,358,3.5,3.5,58,0.00,CLR,SCT,0.00,WeatherDisplay:10.37,2013-07-09 18:17:00,
2013-07-09 14:18:00,91.3,73.9,30.14,WSW,243,4.6,4.6,57,0.00,CLR,SCT,0.00,WeatherDisplay:10.37,2013-07-09 18:18:00,
2013-07-09 14:20:00,91.3,73.9,30.14,NE,51,2.0,5.0,57,0.00,CLR,SCT,0.00,WeatherDisplay:10.37,2013-07-09 18:20:00,
2013-07-09 14:21:00,91.4,74.0,30.14,ENE,78,2.3,2.3,57,0.00,CLR,SCT,0.00,WeatherDisplay:10.37,2013-07-09 18:21:00,
2013-07-09 14:22:00,91.4,74.5,30.13,NE,51,3.5,3.5,58,0.00,CLR,SCT,0.00,WeatherDisplay:10.37,2013-07-09 18:22:00,
2013-07-09 14:25:00,91.5,74.6,30.13,ESE,122,3.5,3.5,58,0.00,CLR,SCT,0.00,WeatherDisplay:10.37,2013-07-09 18:25:00,
2013-07-09 14:27:00,91.5,74.6,30.13,NNW,348,2.3,2.3,58,0.00,CLR,SCT,0.00,WeatherDisplay:10.37,2013-07-09 18:27:00,
2013-07-09 14:28:00,91.4,74.0,30.13,ENE,74,3.0,3.0,57,0.00,CLR,SCT,0.00,WeatherDisplay:10.37,2013-07-09 18:28:00,
2013-07-09 14:29:00,91.3,73.9,30.13,NE,43,4.0,4.0,57,0.00,CLR,SCT,0.00,WeatherDisplay:10.37,2013-07-09 18:29:00,
2013-07-09 14:32:00,91.1,74.3,30.13,SSW,203,1.1,1.1,58,0.00,CLR,SCT,0.00,WeatherDisplay:10.37,2013-07-09 18:32:00,
2013-07-09 14:33:00,91.2,73.8,30.13,South,172,3.0,3.0,57,0.00,CLR,SCT,0.00,WeatherDisplay:10.37,2013-07-09 18:33:00,
2013-07-09 14:35:00,91.3,73.9,30.13,NNE,23,3.5,3.5,57,0.00,CLR,SCT,0.00,WeatherDisplay:10.37,2013-07-09 18:35:00,
2013-07-09 14:37:00,91.1,72.7,30.13,NNE,24,3.5,3.5,55,0.00,CLR,SCT,0.00,WeatherDisplay:10.37,2013-07-09 18:37:00,
2013-07-09 14:38:00,90.7,72.8,30.13,NNE,27,2.3,2.3,56,0.00,CLR,SCT,0.00,WeatherDisplay:10.37,2013-07-09 18:38:00,
2013-07-09 14:41:00,90.5,73.7,30.13,NNE,27,1.1,0.0,58,0.00,CLR,SCT,0.00,WeatherDisplay:10.37,2013-07-09 18:41:00,
2013-07-09 14:43:00,90.7,74.4,30.13,ENE,67,4.0,4.0,59,0.00,CLR,SCT,0.00,WeatherDisplay:10.37,2013-07-09 18:43:00,
2013-07-09 14:44:00,90.8,74.5,30.13,North,1,6.9,6.9,59,0.00,CLR,SCT,0.00,WeatherDisplay:10.37,2013-07-09 18:44:00,
2013-07-09 14:47:00,91.3,73.9,30.13,NE,40,2.3,2.3,57,0.00,CLR,SCT,0.00,WeatherDisplay:10.37,2013-07-09 18:47:00,
2013-07-09 14:48:00,91.3,73.9,30.13,ENE,61,4.0,4.0,57,0.00,CLR,SCT,0.00,WeatherDisplay:10.37,2013-07-09 18:48:00,
2013-07-09 14:49:00,91.4,73.5,30.13,North,359,4.6,4.6,56,0.00,CLR,SCT,0.00,WeatherDisplay:10.37,2013-07-09 18:49:00,
2013-07-09 14:50:00,91.4,73.5,30.13,NE,41,1.0,5.0,56,0.00,CLR,SCT,0.00,WeatherDisplay:10.37,2013-07-09 18:50:00,
2013-07-09 14:51:00,91.5,73.1,30.13,North,354,2.3,2.3,55,0.00,CLR,SCT,0.00,WeatherDisplay:10.37,2013-07-09 18:51:00,
2013-07-09 14:53:00,91.7,73.8,30.12,SSW,208,2.0,2.0,56,0.00,CLR,SCT,0.00,WeatherDisplay:10.37,2013-07-09 18:53:00,
2013-07-09 14:56:00,92.0,73.5,30.12,North,9,8.1,8.1,55,0.00,CLR,SCT,0.00,WeatherDisplay:10.37,2013-07-09 18:56:00,
2013-07-09 14:58:00,92.2,73.2,30.12,NW,304,1.1,0.0,54,0.00,CLR,SCT,0.00,WeatherDisplay:10.37,2013-07-09 18:58:00,
2013-07-09 15:01:00,92.3,72.7,30.12,East,79,9.2,9.2,53,0.00,CLR,SCT,0.00,WeatherDisplay:10.37,2013-07-09 19:01:00,
2013-07-09 15:02:00,92.4,72.8,30.12,NE,37,3.0,3.0,53,0.00,CLR,SCT,0.00,WeatherDisplay:10.37,2013-07-09 19:02:00,
2013-07-09 15:05:00,92.6,73.5,30.12,East,88,0.0,9.0,54,0.00,CLR,SCT,0.00,WeatherDisplay:10.37,2013-07-09 19:05:00,
2013-07-09 15:07:00,92.8,73.7,30.12,North,360,2.3,2.3,54,0.00,CLR,SCT,0.00,WeatherDisplay:10.37,2013-07-09 19:07:00,
2013-07-09 15:08:00,92.8,73.7,30.12,NNE,22,3.5,3.5,54,0.00,CLR,SCT,0.00,WeatherDisplay:10.37,2013-07-09 19:08:00,
2013-07-09 15:10:00,92.4,72.8,30.12,North,8,3.5,3.5,53,0.00,CLR,SCT,0.00,WeatherDisplay:10.37,2013-07-09 19:10:00,
2013-07-09 15:11:00,92.3,72.7,30.12,NNW,348,1.1,1.1,53,0.00,CLR,SCT,0.00,WeatherDisplay:10.37,2013-07-09 19:11:00,
2013-07-09 15:13:00,92.0,72.4,30.12,NNE,12,4.6,4.6,53,0.00,CLR,SCT,0.00,WeatherDisplay:10.37,2013-07-09 19:13:00,
2013-07-09 15:14:00,92.0,73.5,30.11,NNE,12,3.5,3.5,55,0.00,CLR,SCT,0.00,WeatherDisplay:10.37,2013-07-09 19:14:00,
2013-07-09 15:15:00,91.9,72.3,30.11,NE,36,2.3,2.3,53,0.00,CLR,SCT,0.00,WeatherDisplay:10.37,2013-07-09 19:15:00,
2013-07-09 15:16:00,92.0,73.5,30.11,South,173,3.0,3.0,55,0.00,CLR,SCT,0.00,WeatherDisplay:10.37,2013-07-09 19:16:00,
2013-07-09 15:19:00,92.5,72.3,30.11,ESE,105,3.5,3.5,52,0.00,CLR,SCT,0.00,WeatherDisplay:10.37,2013-07-09 19:19:00,
2013-07-09 15:20:00,92.7,73.1,30.11,NE,47,5.8,5.8,53,0.00,CLR,SCT,0.00,WeatherDisplay:10.37,2013-07-09 19:20:00,
2013-07-09 15:21:00,92.7,71.9,30.11,SE,133,5.8,5.8,51,0.00,CLR,SCT,0.00,WeatherDisplay:10.37,2013-07-09 19:21:00,
2013-07-09 15:22:00,92.9,73.2,30.11,NNE,22,2.0,2.0,53,0.00,CLR,SCT,0.00,WeatherDisplay:10.37,2013-07-09 19:22:00,
2013-07-09 15:24:00,92.9,72.1,30.11,NNE,16,3.5,3.5,51,0.00,CLR,SCT,0.00,WeatherDisplay:10.37,2013-07-09 19:24:00,
2013-07-09 15:28:00,92.7,71.9,30.11,WNW,296,5.8,5.8,51,0.00,CLR,SCT,0.00,WeatherDisplay:10.37,2013-07-09 19:28:00,
2013-07-09 15:29:00,92.7,72.5,30.11,WNW,297,1.1,0.0,52,0.00,CLR,SCT,0.00,WeatherDisplay:10.37,2013-07-09 19:29:00,
2013-07-09 15:30:00,92.7,72.5,30.11,NE,40,0.0,0.0,52,0.00,CLR,SCT,0.00,WeatherDisplay:10.37,2013-07-09 19:30:00,
2013-07-09 15:32:00,92.7,71.9,30.11,NE,55,2.3,2.3,51,0.00,CLR,SCT,0.00,WeatherDisplay:10.37,2013-07-09 19:32:00,
2013-07-09 15:34:00,92.6,71.8,30.11,ENE,67,3.0,3.0,51,0.00,CLR,SCT,0.00,WeatherDisplay:10.37,2013-07-09 19:34:00,
2013-07-09 15:35:00,92.5,71.7,30.11,NNE,25,3.5,3.5,51,0.00,CLR,SCT,0.00,WeatherDisplay:10.37,2013-07-09 19:35:00,
2013-07-09 15:36:00,92.4,71.6,30.11,East,92,1.1,1.1,51,0.00,CLR,SCT,0.00,WeatherDisplay:10.37,2013-07-09 19:36:00,
2013-07-09 15:38:00,92.4,72.2,30.10,North,352,3.5,3.5,52,0.00,CLR,SCT,0.00,WeatherDisplay:10.37,2013-07-09 19:38:00,
2013-07-09 15:39:00,92.4,72.2,30.11,East,93,2.3,0.0,52,0.00,CLR,SCT,0.00,WeatherDisplay:10.37,2013-07-09 19:39:00,
2013-07-09 15:42:00,92.6,71.8,30.10,SSE,162,2.3,2.3,51,0.00,CLR,SCT,0.00,WeatherDisplay:10.37,2013-07-09 19:42:00,
2013-07-09 15:43:00,92.7,72.5,30.10,NE,39,3.5,3.5,52,0.00,CLR,SCT,0.00,WeatherDisplay:10.37,2013-07-09 19:43:00,
2013-07-09 15:44:00,92.9,72.7,30.10,NNE,32,2.3,2.3,52,0.00,CLR,SCT,0.00,WeatherDisplay:10.37,2013-07-09 19:44:00,
2013-07-09 15:45:00,92.9,72.6,30.10,East,80,0.0,4.0,52,0.00,CLR,SCT,0.00,WeatherDisplay:10.37,2013-07-09 19:45:00,
2013-07-09 15:47:00,93.1,74.0,30.10,North,4,3.5,3.5,54,0.00,CLR,SCT,0.00,WeatherDisplay:10.37,2013-07-09 19:47:00,
2013-07-09 15:48:00,93.2,71.8,30.10,North,360,3.5,0.0,50,0.00,CLR,SCT,0.00,WeatherDisplay:10.37,2013-07-09 19:48:00,
2013-07-09 15:49:00,93.1,71.7,30.10,ENE,61,1.1,1.1,50,0.00,CLR,SCT,0.00,WeatherDisplay:10.37,2013-07-09 19:49:00,
2013-07-09 15:51:00,93.2,71.8,30.10,East,93,1.1,0.0,50,0.00,CLR,SCT,0.00,WeatherDisplay:10.37,2013-07-09 19:51:00,
2013-07-09 15:54:00,93.6,72.7,30.09,ENE,78,4.6,4.6,51,0.00,CLR,SCT,0.00,WeatherDisplay:10.37,2013-07-09 19:54:00,
2013-07-09 15:55:00,93.6,72.1,30.09,East,86,1.0,5.0,50,0.00,CLR,SCT,0.00,WeatherDisplay:10.37,2013-07-09 19:55:00,
2013-07-09 15:56:00,93.7,72.3,30.09,NE,43,3.5,3.5,50,0.00,CLR,SCT,0.00,WeatherDisplay:10.37,2013-07-09 19:56:00,
2013-07-09 15:58:00,93.6,71.6,30.09,NNW,339,3.5,3.5,49,0.00,CLR,SCT,0.00,WeatherDisplay:10.37,2013-07-09 19:58:00,
2013-07-09 16:00:00,93.5,70.8,30.09,ENE,67,1.0,3.0,48,0.00,CLR,SCT,0.00,WeatherDisplay:10.37,2013-07-09 20:00:00,
2013-07-09 16:02:00,93.1,71.7,30.09,NW,316,1.1,1.1,50,0.00,CLR,SCT,0.00,WeatherDisplay:10.37,2013-07-09 20:02:00,
2013-07-09 16:04:00,93.1,71.1,30.09,NE,54,2.3,2.3,49,0.00,CLR,SCT,0.00,WeatherDisplay:10.37,2013-07-09 20:04:00,
2013-07-09 16:05:00,93.0,71.6,30.09,NE,54,3.5,3.5,50,0.00,CLR,SCT,0.00,WeatherDisplay:10.37,2013-07-09 20:05:00,
2013-07-09 16:07:00,93.1,71.1,30.08,NNE,33,3.5,3.5,49,0.00,CLR,SCT,0.00,WeatherDisplay:10.37,2013-07-09 20:07:00,
2013-07-09 16:08:00,93.2,71.2,30.08,SSE,166,3.5,3.5,49,0.00,CLR,SCT,0.00,WeatherDisplay:10.37,2013-07-09 20:08:00,
2013-07-09 16:10:00,93.3,71.2,30.08,ENE,68,1.0,4.0,49,0.00,CLR,SCT,0.00,WeatherDisplay:10.37,2013-07-09 20:10:00,
2013-07-09 16:13:00,93.7,72.3,30.08,NNE,30,2.3,2.3,50,0.00,CLR,SCT,0.00,WeatherDisplay:10.37,2013-07-09 20:13:00,
2013-07-09 16:15:00,93.7,71.7,30.08,NNE,33,3.0,3.0,49,0.00,CLR,SCT,0.00,WeatherDisplay:10.37,2013-07-09 20:15:00,
2013-07-09 16:16:00,93.7,71.7,30.08,NE,44,3.5,3.5,49,0.00,CLR,SCT,0.00,WeatherDisplay:10.37,2013-07-09 20:16:00,
2013-07-09 16:17:00,93.6,72.7,30.08,ENE,58,2.3,2.3,51,0.00,CLR,SCT,0.00,WeatherDisplay:10.37,2013-07-09 20:17:00,
2013-07-09 16:19:00,93.6,71.6,30.08,NNW,344,1.1,1.1,49,0.00,CLR,SCT,0.00,WeatherDisplay:10.37,2013-07-09 20:19:00,
2013-07-09 16:23:00,93.6,71.0,30.08,WNW,294,4.6,4.6,48,0.00,CLR,SCT,0.00,WeatherDisplay:10.37,2013-07-09 20:23:00,
2013-07-09 16:25:00,93.6,71.0,30.08,SE,138,4.0,4.0,48,0.00,CLR,SCT,0.00,WeatherDisplay:10.37,2013-07-09 20:25:00,
2013-07-09 16:26:00,93.7,71.0,30.07,NNE,27,3.5,3.5,48,0.00,CLR,SCT,0.00,WeatherDisplay:10.37,2013-07-09 20:26:00,
2013-07-09 16:28:00,93.9,71.2,30.07,NE,36,2.3,2.3,48,0.00,CLR,SCT,0.00,WeatherDisplay:10.37,2013-07-09 20:28:00,
2013-07-09 16:29:00,94.0,71.3,30.07,NE,36,1.1,1.1,48,0.00,CLR,SCT,0.00,WeatherDisplay:10.37,2013-07-09 20:29:00,
2013-07-09 16:30:00,93.9,70.6,30.07,ENE,69,2.3,2.3,47,0.00,CLR,SCT,0.00,WeatherDisplay:10.37,2013-07-09 20:30:00,
2013-07-09 16:31:00,93.9,71.8,30.07,East,84,1.1,1.1,49,0.00,CLR,SCT,0.00,WeatherDisplay:10.37,2013-07-09 20:31:00,
2013-07-09 16:35:00,94.0,72.0,30.07,NE,43,0.0,2.0,49,0.00,CLR,SCT,0.00,WeatherDisplay:10.37,2013-07-09 20:35:00,
2013-07-09 16:36:00,94.0,71.3,30.07,NNW,348,3.5,3.5,48,0.00,CLR,SCT,0.00,WeatherDisplay:10.37,2013-07-09 20:36:00,
2013-07-09 16:38:00,93.8,70.5,30.07,NNE,19,2.3,2.3,47,0.00,CLR,SCT,0.00,WeatherDisplay:10.37,2013-07-09 20:38:00,
2013-07-09 16:41:00,93.5,70.2,30.07,North,3,4.6,4.6,47,0.00,CLR,SCT,0.00,WeatherDisplay:10.37,2013-07-09 20:41:00,
2013-07-09 16:42:00,93.3,71.3,30.08,ESE,109,2.3,2.3,49,0.00,CLR,SCT,0.00,WeatherDisplay:10.37,2013-07-09 20:42:00,
2013-07-09 16:44:00,93.0,70.4,30.07,NE,53,2.3,2.3,48,0.00,CLR,SCT,0.00,WeatherDisplay:10.37,2013-07-09 20:44:00,
2013-07-09 16:45:00,93.0,70.4,30.07,NNE,13,0.0,5.0,48,0.00,CLR,SCT,0.00,WeatherDisplay:10.37,2013-07-09 20:45:00,
2013-07-09 16:46:00,92.9,70.9,30.07,NNE,28,3.5,3.5,49,0.00,CLR,SCT,0.00,WeatherDisplay:10.37,2013-07-09 20:46:00,
2013-07-09 16:49:00,92.9,70.9,30.07,NW,319,3.5,3.5,49,0.00,CLR,SCT,0.00,WeatherDisplay:10.37,2013-07-09 20:49:00,
2013-07-09 16:50:00,93.0,71.0,30.07,NW,317,2.3,2.3,49,0.00,CLR,SCT,0.00,WeatherDisplay:10.37,2013-07-09 20:50:00,
2013-07-09 16:52:00,93.2,71.8,30.08,East,79,1.1,1.1,50,0.00,CLR,SCT,0.00,WeatherDisplay:10.37,2013-07-09 20:52:00,
2013-07-09 16:53:00,93.2,71.8,30.08,East,79,1.1,1.1,50,0.00,CLR,SCT,0.00,WeatherDisplay:10.37,2013-07-09 20:53:00,
2013-07-09 16:55:00,93.4,71.4,30.08,ENE,61,3.5,3.5,49,0.00,CLR,SCT,0.00,WeatherDisplay:10.37,2013-07-09 20:55:00,
2013-07-09 16:58:00,93.6,72.2,30.08,SE,145,2.3,2.3,50,0.00,CLR,SCT,0.00,WeatherDisplay:10.37,2013-07-09 20:58:00,
2013-07-09 17:00:00,93.7,70.4,30.08,East,83,2.0,4.0,47,0.00,CLR,SCT,0.00,WeatherDisplay:10.37,2013-07-09 21:00:00,
2013-07-09 17:02:00,93.7,71.0,30.07,ESE,119,2.0,2.0,48,0.00,CLR,SCT,0.00,WeatherDisplay:10.37,2013-07-09 21:02:00,
2013-07-09 17:05:00,93.6,70.3,30.08,NE,40,3.5,3.5,47,0.00,CLR,SCT,0.00,WeatherDisplay:10.37,2013-07-09 21:05:00,
2013-07-09 17:06:00,93.6,71.0,30.07,NNW,330,3.5,3.5,48,0.00,CLR,SCT,0.00,WeatherDisplay:10.37,2013-07-09 21:06:00,
2013-07-09 17:08:00,93.3,70.7,30.07,NE,36,1.1,1.1,48,0.00,CLR,SCT,0.00,WeatherDisplay:10.37,2013-07-09 21:08:00,
2013-07-09 17:11:00,93.1,71.7,30.07,NW,325,2.3,2.3,50,0.00,CLR,SCT,0.00,WeatherDisplay:10.37,2013-07-09 21:11:00,
2013-07-09 17:12:00,93.1,71.1,30.07,NE,41,2.3,2.3,49,0.00,CLR,SCT,0.00,WeatherDisplay:10.37,2013-07-09 21:12:00,
2013-07-09 17:13:00,93.0,71.6,30.07,NE,34,1.1,1.1,50,0.00,CLR,SCT,0.00,WeatherDisplay:10.37,2013-07-09 21:13:00,
2013-07-09 17:14:00,93.0,72.2,30.07,NE,36,2.3,2.3,51,0.00,CLR,SCT,0.00,WeatherDisplay:10.37,2013-07-09 21:14:00,
2013-07-09 17:16:00,93.1,72.3,30.07,SW,222,1.1,1.1,51,0.00,CLR,SCT,0.00,WeatherDisplay:10.37,2013-07-09 21:16:00,
2013-07-09 17:17:00,93.1,71.7,30.07,NE,45,1.1,0.0,50,0.00,CLR,SCT,0.00,WeatherDisplay:10.37,2013-07-09 21:17:00,
2013-07-09 17:19:00,93.2,71.8,30.07,ESE,108,2.3,2.3,50,0.00,CLR,SCT,0.00,WeatherDisplay:10.37,2013-07-09 21:19:00,
2013-07-09 17:20:00,93.3,71.9,30.07,ENE,75,1.1,1.3,50,0.00,CLR,SCT,0.00,WeatherDisplay:10.37,2013-07-09 21:20:00,
2013-07-09 17:22:00,93.3,72.5,30.07,WNW,302,2.3,2.3,51,0.00,CLR,SCT,0.00,WeatherDisplay:10.37,2013-07-09 21:22:00,
2013-07-09 17:24:00,93.3,71.9,30.07,NE,49,1.1,1.1,50,0.00,CLR,SCT,0.00,WeatherDisplay:10.37,2013-07-09 21:24:00,
2013-07-09 17:25:00,93.2,71.8,30.07,North,8,1.1,1.1,50,0.00,CLR,SCT,0.00,WeatherDisplay:10.37,2013-07-09 21:25:00,
2013-07-09 17:26:00,93.2,71.8,30.07,NNW,330,1.1,1.1,50,0.00,CLR,SCT,0.00,WeatherDisplay:10.37,2013-07-09 21:26:00,
2013-07-09 17:29:00,93.1,71.7,30.07,ESE,111,2.3,2.3,50,0.00,CLR,SCT,0.00,WeatherDisplay:10.37,2013-07-09 21:29:00,
2013-07-09 17:30:00,93.2,71.8,30.07,North,6,0.0,2.0,50,0.00,CLR,SCT,0.00,WeatherDisplay:10.37,2013-07-09 21:30:00,
2013-07-09 17:32:00,93.0,71.6,30.07,SSE,150,3.5,3.5,50,0.00,CLR,SCT,0.00,WeatherDisplay:10.37,2013-07-09 21:32:00,
2013-07-09 17:34:00,92.9,70.9,30.07,SE,136,3.5,3.5,49,0.00,CLR,SCT,0.00,WeatherDisplay:10.37,2013-07-09 21:34:00,
2013-07-09 17:35:00,93.0,71.6,30.07,NE,53,2.3,2.3,50,0.00,CLR,SCT,0.00,WeatherDisplay:10.37,2013-07-09 21:35:00,
2013-07-09 17:36:00,93.0,71.6,30.07,NE,53,3.5,3.5,50,0.00,CLR,SCT,0.00,WeatherDisplay:10.37,2013-07-09 21:36:00,
2013-07-09 17:38:00,93.0,72.2,30.07,NE,53,3.5,3.5,51,0.00,CLR,SCT,0.00,WeatherDisplay:10.37,2013-07-09 21:38:00,
2013-07-09 17:40:00,93.1,72.9,30.07,ENE,69,1.1,1.1,52,0.00,CLR,SCT,0.00,WeatherDisplay:10.37,2013-07-09 21:40:00,
2013-07-09 17:41:00,93.2,73.5,30.07,ENE,66,1.1,1.1,53,0.00,CLR,SCT,0.00,WeatherDisplay:10.37,2013-07-09 21:41:00,
2013-07-09 17:43:00,93.4,73.1,30.07,East,101,1.1,1.1,52,0.00,CLR,SCT,0.00,WeatherDisplay:10.37,2013-07-09 21:43:00,
2013-07-09 17:45:00,93.4,72.6,30.07,NNE,19,3.5,3.5,51,0.00,CLR,SCT,0.00,WeatherDisplay:10.37,2013-07-09 21:45:00,
2013-07-09 17:47:00,93.2,72.4,30.07,ENE,70,1.1,1.1,51,0.00,CLR,SCT,0.00,WeatherDisplay:10.37,2013-07-09 21:47:00,
2013-07-09 17:50:00,93.0,72.2,30.07,NNE,33,2.3,0.0,51,0.00,CLR,SCT,0.00,WeatherDisplay:10.37,2013-07-09 21:50:00,
2013-07-09 17:51:00,92.9,72.7,30.07,NE,46,1.1,1.1,52,0.00,CLR,SCT,0.00,WeatherDisplay:10.37,2013-07-09 21:51:00,
2013-07-09 17:52:00,92.8,72.6,30.07,NNE,16,2.3,2.3,52,0.00,CLR,SCT,0.00,WeatherDisplay:10.37,2013-07-09 21:52:00,
2013-07-09 17:53:00,92.8,72.0,30.07,NNE,27,1.1,0.0,51,0.00,CLR,SCT,0.00,WeatherDisplay:10.37,2013-07-09 21:53:00,
2013-07-09 17:55:00,92.8,72.6,30.07,NE,56,2.3,2.3,52,0.00,CLR,SCT,0.00,WeatherDisplay:10.37,2013-07-09 21:55:00,
2013-07-09 17:58:00,92.6,71.2,30.07,NNE,30,3.0,3.0,50,0.00,CLR,SCT,0.00,WeatherDisplay:10.37,2013-07-09 21:58:00,
2013-07-09 17:59:00,92.6,71.2,30.07,SSW,207,6.9,6.9,50,0.00,CLR,SCT,0.00,WeatherDisplay:10.37,2013-07-09 21:59:00,
2013-07-09 18:01:00,92.7,71.9,30.07,SSW,207,0.0,0.0,51,0.00,CLR,SCT,0.00,WeatherDisplay:10.37,2013-07-09 22:01:00,
2013-07-09 18:03:00,92.8,73.2,30.07,ENE,62,3.5,3.5,53,0.00,CLR,SCT,0.00,WeatherDisplay:10.37,2013-07-09 22:03:00,
2013-07-09 18:04:00,92.8,72.6,30.07,ENE,63,0.0,0.0,52,0.00,CLR,SCT,0.00,WeatherDisplay:10.37,2013-07-09 22:04:00,
2013-07-09 18:05:00,92.9,72.1,30.07,SE,135,3.0,3.0,51,0.00,CLR,SCT,0.00,WeatherDisplay:10.37,2013-07-09 22:05:00,
2013-07-09 18:06:00,92.9,71.5,30.07,North,349,3.5,3.5,50,0.00,CLR,SCT,0.00,WeatherDisplay:10.37,2013-07-09 22:06:00,
2013-07-09 18:08:00,92.8,71.4,30.07,NE,41,4.6,4.6,50,0.00,CLR,SCT,0.00,WeatherDisplay:10.37,2013-07-09 22:08:00,
2013-07-09 18:10:00,92.7,71.3,30.07,NE,46,1.0,5.0,50,0.00,CLR,SCT,0.00,WeatherDisplay:10.37,2013-07-09 22:10:00,
2013-07-09 18:11:00,92.5,71.2,30.07,North,6,3.5,3.5,50,0.00,CLR,SCT,0.00,WeatherDisplay:10.37,2013-07-09 22:11:00,
2013-07-09 18:14:00,92.3,71.0,30.07,NE,44,3.5,3.5,50,0.00,CLR,SCT,0.00,WeatherDisplay:10.37,2013-07-09 22:14:00,
2013-07-09 18:15:00,92.3,71.0,30.07,NE,44,0.0,0.0,50,0.00,CLR,SCT,0.00,WeatherDisplay:10.37,2013-07-09 22:15:00,
2013-07-09 18:17:00,92.3,72.1,30.07,NNE,27,1.1,0.0,52,0.00,CLR,SCT,0.00,WeatherDisplay:10.37,2013-07-09 22:17:00,
2013-07-09 18:19:00,92.3,72.1,30.07,NNE,16,2.3,2.3,52,0.00,CLR,SCT,0.00,WeatherDisplay:10.37,2013-07-09 22:19:00,
2013-07-09 18:20:00,92.3,71.6,30.07,NNE,29,1.0,2.0,51,0.00,CLR,SCT,0.00,WeatherDisplay:10.37,2013-07-09 22:20:00,
2013-07-09 18:22:00,92.0,71.3,30.07,North,4,0.0,0.2,51,0.00,CLR,SCT,0.00,WeatherDisplay:10.37,2013-07-09 22:22:00,
2013-07-09 18:24:00,92.0,71.3,30.07,North,359,1.1,0.0,51,0.00,CLR,SCT,0.00,WeatherDisplay:10.37,2013-07-09 22:24:00,
2013-07-09 18:25:00,91.9,71.2,30.07,NNE,27,0.0,1.0,51,0.00,CLR,SCT,0.00,WeatherDisplay:10.37,2013-07-09 22:25:00,
2013-07-09 18:27:00,91.8,71.7,30.07,North,1,1.1,0.0,52,0.00,CLR,SCT,0.00,WeatherDisplay:10.37,2013-07-09 22:27:00,
2013-07-09 18:28:00,91.7,71.6,30.07,ENE,57,1.0,1.0,52,0.00,CLR,SCT,0.00,WeatherDisplay:10.37,2013-07-09 22:28:00,
2013-07-09 18:29:00,91.6,70.9,30.07,East,79,1.1,1.1,51,0.00,CLR,SCT,0.00,WeatherDisplay:10.37,2013-07-09 22:29:00,
2013-07-09 18:30:00,91.6,70.9,30.07,NNE,24,1.0,4.0,51,0.00,CLR,SCT,0.00,WeatherDisplay:10.37,2013-07-09 22:30:00,
2013-07-09 18:32:00,91.4,71.3,30.07,SE,138,1.1,0.0,52,0.00,CLR,SCT,0.00,WeatherDisplay:10.37,2013-07-09 22:32:00,
2013-07-09 18:33:00,91.3,71.2,30.07,SE,142,1.1,0.0,52,0.00,CLR,SCT,0.00,WeatherDisplay:10.37,2013-07-09 22:33:00,
2013-07-09 18:34:00,91.2,70.0,30.07,NNE,27,5.8,5.8,50,0.00,CLR,SCT,0.00,WeatherDisplay:10.37,2013-07-09 22:34:00,
2013-07-09 18:35:00,90.9,70.3,30.07,NE,36,4.6,4.6,51,0.00,CLR,SCT,0.00,WeatherDisplay:10.37,2013-07-09 22:35:00,
2013-07-09 18:36:00,90.8,70.2,30.07,NE,36,3.5,3.5,51,0.00,CLR,SCT,0.00,WeatherDisplay:10.37,2013-07-09 22:36:00,
2013-07-09 18:38:00,90.5,69.9,30.08,NE,53,1.1,1.1,51,0.00,CLR,SCT,0.00,WeatherDisplay:10.37,2013-07-09 22:38:00,
2013-07-09 18:40:00,90.2,70.2,30.08,NE,56,1.1,1.1,52,0.00,CLR,SCT,0.00,WeatherDisplay:10.37,2013-07-09 22:40:00,
2013-07-09 18:41:00,90.1,70.1,30.08,NE,36,2.3,2.3,52,0.00,CLR,SCT,0.00,WeatherDisplay:10.37,2013-07-09 22:41:00,
2013-07-09 18:42:00,90.0,70.6,30.08,NE,36,2.3,2.3,53,0.00,CLR,SCT,0.00,WeatherDisplay:10.37,2013-07-09 22:42:00,
2013-07-09 18:46:00,89.6,69.6,30.07,ENE,76,1.0,0.0,52,0.00,CLR,SCT,0.00,WeatherDisplay:10.37,2013-07-09 22:46:00,
2013-07-09 18:47:00,89.6,69.6,30.07,ENE,75,1.1,1.1,52,0.00,CLR,SCT,0.00,WeatherDisplay:10.37,2013-07-09 22:47:00,
2013-07-09 18:48:00,89.5,69.5,30.07,NE,49,1.1,0.0,52,0.00,CLR,SCT,0.00,WeatherDisplay:10.37,2013-07-09 22:48:00,
2013-07-09 18:49:00,89.4,69.5,30.07,NE,49,0.0,0.0,52,0.00,CLR,SCT,0.00,WeatherDisplay:10.37,2013-07-09 22:49:00,
2013-07-09 18:52:00,89.2,69.3,30.08,NE,36,1.1,1.1,52,0.00,CLR,SCT,0.00,WeatherDisplay:10.37,2013-07-09 22:52:00,
2013-07-09 18:54:00,89.2,69.3,30.07,NE,46,2.3,2.3,52,0.00,CLR,SCT,0.00,WeatherDisplay:10.37,2013-07-09 22:54:00,
2013-07-09 18:55:00,89.2,69.3,30.07,NE,46,1.1,1.1,52,0.00,CLR,SCT,0.00,WeatherDisplay:10.37,2013-07-09 22:55:00,
2013-07-09 18:57:00,89.3,69.4,30.07,NNE,25,1.1,1.1,52,0.00,CLR,SCT,0.00,WeatherDisplay:10.37,2013-07-09 22:57:00,
2013-07-09 18:59:00,89.4,68.9,30.07,NNE,30,1.1,0.0,51,0.00,CLR,SCT,0.00,WeatherDisplay:10.37,2013-07-09 22:59:00,
2013-07-09 19:00:00,89.4,68.9,30.07,NE,37,0.0,1.0,51,0.00,CLR,SCT,0.00,WeatherDisplay:10.37,2013-07-09 23:00:00,
2013-07-09 19:01:00,89.4,68.9,30.07,NE,49,1.1,1.1,51,0.00,CLR,SCT,0.00,WeatherDisplay:10.37,2013-07-09 23:01:00,
2013-07-09 19:05:00,89.2,69.2,30.07,NE,38,0.0,1.0,52,0.00,CLR,SCT,0.00,WeatherDisplay:10.37,2013-07-09 23:05:00,
2013-07-09 19:06:00,88.9,69.0,30.07,North,8,1.1,0.0,52,0.00,CLR,SCT,0.00,WeatherDisplay:10.37,2013-07-09 23:06:00,
2013-07-09 19:10:00,88.5,71.3,30.07,SSE,150,3.5,3.5,57,0.00,CLR,SCT,0.00,WeatherDisplay:10.37,2013-07-09 23:10:00,
2013-07-09 19:12:00,88.4,71.7,30.07,SE,141,4.6,4.6,58,0.00,CLR,SCT,0.00,WeatherDisplay:10.37,2013-07-09 23:12:00,
2013-07-09 19:14:00,88.2,72.1,30.07,North,11,1.1,0.0,59,0.00,CLR,SCT,0.00,WeatherDisplay:10.37,2013-07-09 23:14:00,
2013-07-09 19:17:00,87.8,72.7,30.07,ENE,64,1.1,1.1,61,0.00,CLR,SCT,0.00,WeatherDisplay:10.37,2013-07-09 23:17:00,
2013-07-09 19:19:00,87.6,73.0,30.07,ENE,63,1.1,1.1,62,0.00,CLR,SCT,0.00,WeatherDisplay:10.37,2013-07-09 23:19:00,
2013-07-09 19:20:00,87.6,72.9,30.07,ENE,75,0.0,4.0,62,0.00,CLR,SCT,0.00,WeatherDisplay:10.37,2013-07-09 23:20:00,
2013-07-09 19:22:00,87.4,72.8,30.07,East,96,0.0,1.3,62,0.00,CLR,SCT,0.00,WeatherDisplay:10.37,2013-07-09 23:22:00,
2013-07-09 19:23:00,87.2,73.1,30.08,NNE,32,1.1,1.1,63,0.00,CLR,SCT,0.00,WeatherDisplay:10.37,2013-07-09 23:23:00,
2013-07-09 19:24:00,87.2,73.1,30.07,ENE,72,2.3,2.3,63,0.00,CLR,SCT,0.00,WeatherDisplay:10.37,2013-07-09 23:24:00,
2013-07-09 19:25:00,87.1,73.4,30.08,East,97,1.1,1.1,64,0.00,CLR,SCT,0.00,WeatherDisplay:10.37,2013-07-09 23:25:00,
2013-07-09 19:27:00,87.0,73.3,30.08,SE,131,2.3,2.3,64,0.00,CLR,SCT,0.00,WeatherDisplay:10.37,2013-07-09 23:27:00,
2013-07-09 19:29:00,86.9,73.3,30.08,NNE,16,4.6,4.6,64,0.00,CLR,SCT,0.00,WeatherDisplay:10.37,2013-07-09 23:29:00,
2013-07-09 19:30:00,86.9,73.2,30.08,ENE,78,1.0,5.0,64,0.00,CLR,SCT,0.00,WeatherDisplay:10.37,2013-07-09 23:30:00,
2013-07-09 19:31:00,86.7,73.5,30.07,SSW,207,3.5,3.5,65,0.00,CLR,SCT,0.00,WeatherDisplay:10.37,2013-07-09 23:31:00,
2013-07-09 19:34:00,86.5,73.3,30.07,ENE,63,3.5,3.5,65,0.00,CLR,SCT,0.00,WeatherDisplay:10.37,2013-07-09 23:34:00,
2013-07-09 19:35:00,86.5,73.3,30.07,ESE,109,1.0,4.0,65,0.00,CLR,SCT,0.00,WeatherDisplay:10.37,2013-07-09 23:35:00,
2013-07-09 19:37:00,86.3,73.1,30.07,ENE,71,2.3,2.3,65,0.00,CLR,SCT,0.00,WeatherDisplay:10.37,2013-07-09 23:37:00,
2013-07-09 19:38:00,86.3,73.1,30.07,ENE,70,0.0,0.0,65,0.00,CLR,SCT,0.00,WeatherDisplay:10.37,2013-07-09 23:38:00,
2013-07-09 19:39:00,86.2,73.0,30.07,ESE,123,3.0,3.0,65,0.00,CLR,SCT,0.00,WeatherDisplay:10.37,2013-07-09 23:39:00,
2013-07-09 19:40:00,86.2,73.0,30.07,ESE,103,0.0,4.0,65,0.00,CLR,SCT,0.00,WeatherDisplay:10.37,2013-07-09 23:40:00,
2013-07-09 19:43:00,85.9,72.8,30.07,NNE,27,1.1,1.1,65,0.00,CLR,SCT,0.00,WeatherDisplay:10.37,2013-07-09 23:43:00,
2013-07-09 19:44:00,85.8,73.1,30.07,NE,53,3.0,3.0,66,0.00,CLR,SCT,0.00,WeatherDisplay:10.37,2013-07-09 23:44:00,
2013-07-09 19:45:00,85.8,72.7,30.07,ENE,67,3.5,3.5,65,0.00,CLR,SCT,0.00,WeatherDisplay:10.37,2013-07-09 23:45:00,
2013-07-09 19:49:00,85.5,72.8,30.07,South,177,2.3,2.3,66,0.00,CLR,SCT,0.00,WeatherDisplay:10.37,2013-07-09 23:49:00,
2013-07-09 19:50:00,85.5,72.8,30.07,NNE,14,0.0,2.0,66,0.00,CLR,SCT,0.00,WeatherDisplay:10.37,2013-07-09 23:50:00,
2013-07-09 19:51:00,85.4,72.7,30.07,East,80,1.1,1.1,66,0.00,CLR,SCT,0.00,WeatherDisplay:10.37,2013-07-09 23:51:00,
2013-07-09 19:54:00,85.2,72.6,30.07,ENE,76,2.3,2.3,66,0.00,CLR,SCT,0.00,WeatherDisplay:10.37,2013-07-09 23:54:00,
2013-07-09 19:55:00,85.2,72.6,30.07,ENE,58,2.3,2.3,66,0.00,CLR,SCT,0.00,WeatherDisplay:10.37,2013-07-09 23:55:00,
2013-07-09 19:56:00,85.2,72.6,30.07,NE,55,2.3,2.3,66,0.00,CLR,SCT,0.00,WeatherDisplay:10.37,2013-07-09 23:56:00,
2013-07-09 19:57:00,85.1,72.5,30.07,NE,55,1.1,0.0,66,0.00,CLR,SCT,0.00,WeatherDisplay:10.37,2013-07-09 23:57:00,
2013-07-09 19:58:00,85.1,72.9,30.07,NE,55,0.0,0.0,67,0.00,CLR,SCT,0.00,WeatherDisplay:10.37,2013-07-09 23:58:00,
2013-07-09 20:01:00,84.9,72.7,30.07,NE,43,2.3,0.0,67,0.00,CLR,SCT,0.00,WeatherDisplay:10.37,2013-07-10 00:01:00,
2013-07-09 20:02:00,84.9,72.7,30.07,NE,43,0.0,0.0,67,0.00,CLR,SCT,0.00,WeatherDisplay:10.37,2013-07-10 00:02:00,
2013-07-09 20:04:00,84.7,72.5,30.07,NE,42,1.1,1.1,67,0.00,CLR,SCT,0.00,WeatherDisplay:10.37,2013-07-10 00:04:00,
2013-07-09 20:06:00,84.6,72.9,30.07,NE,43,0.0,0.0,68,0.00,CLR,SCT,0.00,WeatherDisplay:10.37,2013-07-10 00:06:00,
2013-07-09 20:08:00,84.5,72.8,30.07,NE,42,0.0,0.0,68,0.00,CLR,SCT,0.00,WeatherDisplay:10.37,2013-07-10 00:08:00,
2013-07-09 20:09:00,84.5,72.8,30.07,ESE,115,0.0,0.0,68,0.00,CLR,SCT,0.00,WeatherDisplay:10.37,2013-07-10 00:09:00,
2013-07-09 20:10:00,84.4,73.1,30.07,ESE,115,0.0,0.0,69,0.00,CLR,SCT,0.00,WeatherDisplay:10.37,2013-07-10 00:10:00,
2013-07-09 20:12:00,84.3,72.6,30.07,NE,53,2.3,2.3,68,0.00,CLR,SCT,0.00,WeatherDisplay:10.37,2013-07-10 00:12:00,
2013-07-09 20:13:00,84.2,72.9,30.07,ENE,67,0.0,0.0,69,0.00,CLR,SCT,0.00,WeatherDisplay:10.37,2013-07-10 00:13:00,
2013-07-09 20:14:00,84.2,72.9,30.07,ENE,67,1.1,0.0,69,0.00,CLR,SCT,0.00,WeatherDisplay:10.37,2013-07-10 00:14:00,
2013-07-09 20:15:00,84.1,72.8,30.07,WSW,246,0.0,0.0,69,0.00,CLR,SCT,0.00,WeatherDisplay:10.37,2013-07-10 00:15:00,
2013-07-09 20:16:00,84.1,72.4,30.07,SSE,156,1.1,0.0,68,0.00,CLR,SCT,0.00,WeatherDisplay:10.37,2013-07-10 00:16:00,
2013-07-09 20:20:00,83.9,72.2,30.07,East,98,0.0,0.0,68,0.00,CLR,SCT,0.00,WeatherDisplay:10.37,2013-07-10 00:20:00,
2013-07-09 20:21:00,83.8,72.1,30.07,ESE,105,0.0,0.0,68,0.00,CLR,SCT,0.00,WeatherDisplay:10.37,2013-07-10 00:21:00,
2013-07-09 20:24:00,83.7,72.4,30.08,East,79,1.1,0.0,69,0.00,CLR,SCT,0.00,WeatherDisplay:10.37,2013-07-10 00:24:00,
2013-07-09 20:25:00,83.7,72.4,30.08,SSE,149,0.0,1.0,69,0.00,CLR,SCT,0.00,WeatherDisplay:10.37,2013-07-10 00:25:00,
2013-07-09 20:26:00,83.6,72.3,30.08,South,173,0.0,0.0,69,0.00,CLR,SCT,0.00,WeatherDisplay:10.37,2013-07-10 00:26:00,
2013-07-09 20:27:00,83.6,72.3,30.08,South,172,0.0,0.0,69,0.00,CLR,SCT,0.00,WeatherDisplay:10.37,2013-07-10 00:27:00,
2013-07-09 20:29:00,83.5,71.8,30.08,ENE,63,4.6,4.6,68,0.00,CLR,SCT,0.00,WeatherDisplay:10.37,2013-07-10 00:29:00,
2013-07-09 20:31:00,83.5,72.3,30.08,SE,134,1.1,0.0,69,0.00,CLR,SCT,0.00,WeatherDisplay:10.37,2013-07-10 00:31:00,
2013-07-09 20:32:00,83.5,71.8,30.08,ESE,106,3.5,3.5,68,0.00,CLR,SCT,0.00,WeatherDisplay:10.37,2013-07-10 00:32:00,
2013-07-09 20:33:00,83.5,72.3,30.08,ESE,114,2.3,2.3,69,0.00,CLR,SCT,0.00,WeatherDisplay:10.37,2013-07-10 00:33:00,
2013-07-09 20:34:00,83.5,72.3,30.08,ESE,115,1.1,0.0,69,0.00,CLR,SCT,0.00,WeatherDisplay:10.37,2013-07-10 00:34:00,
2013-07-09 20:35:00,83.5,72.3,30.08,ESE,106,0.0,4.0,69,0.00,CLR,SCT,0.00,WeatherDisplay:10.37,2013-07-10 00:35:00,
2013-07-09 20:37:00,83.4,72.2,30.08,ENE,63,0.0,0.0,69,0.00,CLR,SCT,0.00,WeatherDisplay:10.37,2013-07-10 00:37:00,
2013-07-09 20:40:00,83.3,72.1,30.08,East,83,0.0,1.0,69,0.00,CLR,SCT,0.00,WeatherDisplay:10.37,2013-07-10 00:40:00,
2013-07-09 20:41:00,83.2,72.0,30.08,SSE,156,0.0,0.0,69,0.00,CLR,SCT,0.00,WeatherDisplay:10.37,2013-07-10 00:41:00,
2013-07-09 20:43:00,83.1,71.9,30.08,SW,229,1.0,1.0,69,0.00,CLR,SCT,0.00,WeatherDisplay:10.37,2013-07-10 00:43:00,
2013-07-09 20:44:00,83.0,71.8,30.09,SW,229,1.1,0.0,69,0.00,CLR,SCT,0.00,WeatherDisplay:10.37,2013-07-10 00:44:00,
2013-07-09 20:45:00,82.9,71.7,30.09,SW,229,0.0,0.0,69,0.00,CLR,SCT,0.00,WeatherDisplay:10.37,2013-07-10 00:45:00,
2013-07-09 20:46:00,82.9,71.7,30.09,ENE,70,1.1,1.1,69,0.00,CLR,SCT,0.00,WeatherDisplay:10.37,2013-07-10 00:46:00,
2013-07-09 20:47:00,82.9,72.1,30.09,South,177,1.1,1.1,70,0.00,CLR,SCT,0.00,WeatherDisplay:10.37,2013-07-10 00:47:00,
2013-07-09 20:49:00,82.8,72.0,30.09,South,186,0.0,0.0,70,0.00,CLR,SCT,0.00,WeatherDisplay:10.37,2013-07-10 00:49:00,
2013-07-09 20:50:00,82.7,71.9,30.09,South,186,0.0,0.0,70,0.00,CLR,SCT,0.00,WeatherDisplay:10.37,2013-07-10 00:50:00,
2013-07-09 20:51:00,82.6,71.8,30.09,South,186,0.0,0.0,70,0.00,CLR,SCT,0.00,WeatherDisplay:10.37,2013-07-10 00:51:00,
2013-07-09 20:53:00,82.5,71.7,30.09,South,172,0.0,0.0,70,0.00,CLR,SCT,0.00,WeatherDisplay:10.37,2013-07-10 00:53:00,
2013-07-09 20:55:00,82.5,71.7,30.09,ESE,107,1.0,1.0,70,0.00,CLR,SCT,0.00,WeatherDisplay:10.37,2013-07-10 00:55:00,
2013-07-09 20:56:00,82.5,71.7,30.09,East,101,1.1,1.1,70,0.00,CLR,SCT,0.00,WeatherDisplay:10.37,2013-07-10 00:56:00,
2013-07-09 20:57:00,82.4,71.6,30.09,NE,46,2.3,2.3,70,0.00,CLR,SCT,0.00,WeatherDisplay:10.37,2013-07-10 00:57:00,
2013-07-09 21:00:00,82.3,72.0,30.09,NE,45,0.0,0.0,71,0.00,CLR,SCT,0.00,WeatherDisplay:10.37,2013-07-10 01:00:00,
2013-07-09 21:01:00,82.3,71.5,30.09,NE,45,0.0,0.0,70,0.00,CLR,SCT,0.00,WeatherDisplay:10.37,2013-07-10 01:01:00,
2013-07-09 21:02:00,82.2,71.4,30.09,ENE,77,1.1,1.1,70,0.00,CLR,SCT,0.00,WeatherDisplay:10.37,2013-07-10 01:02:00,
2013-07-09 21:04:00,82.1,71.8,30.09,ENE,77,1.1,0.0,71,0.00,CLR,SCT,0.00,WeatherDisplay:10.37,2013-07-10 01:04:00,
2013-07-09 21:05:00,82.1,71.8,30.09,ENE,76,0.0,0.0,71,0.00,CLR,SCT,0.00,WeatherDisplay:10.37,2013-07-10 01:05:00,
2013-07-09 21:06:00,82.1,71.8,30.09,ENE,76,0.0,0.0,71,0.00,CLR,SCT,0.00,WeatherDisplay:10.37,2013-07-10 01:06:00,
2013-07-09 21:09:00,82.0,71.7,30.09,SE,125,1.1,0.0,71,0.00,CLR,SCT,0.00,WeatherDisplay:10.37,2013-07-10 01:09:00,
2013-07-09 21:10:00,82.0,71.7,30.09,East,91,0.0,1.0,71,0.00,CLR,SCT,0.00,WeatherDisplay:10.37,2013-07-10 01:10:00,
2013-07-09 21:11:00,82.0,71.7,30.09,ESE,122,1.1,0.0,71,0.00,CLR,SCT,0.00,WeatherDisplay:10.37,2013-07-10 01:11:00,
2013-07-09 21:13:00,81.9,71.6,30.09,ESE,120,1.1,0.0,71,0.00,CLR,SCT,0.00,WeatherDisplay:10.37,2013-07-10 01:13:00,
2013-07-09 21:15:00,81.9,71.6,30.09,ESE,116,0.0,1.0,71,0.00,CLR,SCT,0.00,WeatherDisplay:10.37,2013-07-10 01:15:00,
2013-07-09 21:16:00,81.9,72.0,30.09,ESE,120,1.1,1.1,72,0.00,CLR,SCT,0.00,WeatherDisplay:10.37,2013-07-10 01:16:00,
2013-07-09 21:20:00,81.7,71.8,30.09,SSW,212,0.0,0.0,72,0.00,CLR,SCT,0.00,WeatherDisplay:10.37,2013-07-10 01:20:00,
2013-07-09 21:21:00,81.7,71.8,30.09,SSW,212,0.0,0.0,72,0.00,CLR,SCT,0.00,WeatherDisplay:10.37,2013-07-10 01:21:00,
2013-07-09 21:22:00,81.7,71.8,30.09,SSW,212,0.0,0.0,72,0.00,CLR,SCT,0.00,WeatherDisplay:10.37,2013-07-10 01:22:00,
2013-07-09 21:27:00,81.6,72.1,30.09,NNE,30,6.9,6.9,73,0.00,CLR,SCT,0.00,WeatherDisplay:10.37,2013-07-10 01:27:00,
2013-07-09 21:28:00,81.6,72.1,30.10,NNE,30,0.0,0.0,73,0.00,CLR,SCT,0.00,WeatherDisplay:10.37,2013-07-10 01:28:00,
2013-07-09 21:29:00,81.6,72.1,30.10,NNE,30,0.0,0.0,73,0.00,CLR,SCT,0.00,WeatherDisplay:10.37,2013-07-10 01:29:00,
2013-07-09 21:31:00,81.5,72.0,30.09,NNE,30,0.0,0.0,73,0.00,CLR,SCT,0.00,WeatherDisplay:10.37,2013-07-10 01:31:00,
2013-07-09 21:32:00,81.5,72.0,30.09,East,88,1.1,0.0,73,0.00,CLR,SCT,0.00,WeatherDisplay:10.37,2013-07-10 01:32:00,
2013-07-09 21:33:00,81.4,71.9,30.09,East,87,1.0,1.0,73,0.00,CLR,SCT,0.00,WeatherDisplay:10.37,2013-07-10 01:33:00,
2013-07-09 21:35:00,81.4,72.3,30.09,ENE,59,0.0,2.0,74,0.00,CLR,SCT,0.00,WeatherDisplay:10.37,2013-07-10 01:35:00,
2013-07-09 21:37:00,81.4,72.3,30.10,SSW,204,1.1,1.1,74,0.00,CLR,SCT,0.00,WeatherDisplay:10.37,2013-07-10 01:37:00,
2013-07-09 21:38:00,81.3,72.2,30.10,East,91,1.1,1.1,74,0.00,CLR,SCT,0.00,WeatherDisplay:10.37,2013-07-10 01:38:00,
2013-07-09 21:39:00,81.4,72.3,30.10,East,90,2.3,2.3,74,0.00,CLR,SCT,0.00,WeatherDisplay:10.37,2013-07-10 01:39:00,
2013-07-09 21:40:00,81.3,72.2,30.10,SE,130,0.0,2.0,74,0.00,CLR,SCT,0.00,WeatherDisplay:10.37,2013-07-10 01:40:00,
2013-07-09 21:44:00,81.3,72.2,30.10,SSE,156,0.0,0.0,74,0.00,CLR,SCT,0.00,WeatherDisplay:10.37,2013-07-10 01:44:00,
2013-07-09 21:45:00,81.2,72.1,30.09,SE,137,0.0,0.0,74,0.00,CLR,SCT,0.00,WeatherDisplay:10.37,2013-07-10 01:45:00,
2013-07-09 21:46:00,81.2,72.1,30.10,SE,136,0.0,0.0,74,0.00,CLR,SCT,0.00,WeatherDisplay:10.37,2013-07-10 01:46:00,
2013-07-09 21:49:00,81.1,72.0,30.10,East,82,1.1,1.1,74,0.00,CLR,SCT,0.00,WeatherDisplay:10.37,2013-07-10 01:49:00,
2013-07-09 21:51:00,81.1,72.0,30.10,East,82,0.0,0.0,74,0.00,CLR,SCT,0.00,WeatherDisplay:10.37,2013-07-10 01:51:00,
2013-07-09 21:52:00,81.0,71.9,30.10,East,82,1.0,1.0,74,0.00,CLR,SCT,0.00,WeatherDisplay:10.37,2013-07-10 01:52:00,
2013-07-09 21:53:00,81.0,71.9,30.10,ENE,64,2.3,2.3,74,0.00,CLR,SCT,0.00,WeatherDisplay:10.37,2013-07-10 01:53:00,
2013-07-09 21:55:00,81.0,71.9,30.10,ENE,63,0.0,0.0,74,0.00,CLR,SCT,0.00,WeatherDisplay:10.37,2013-07-10 01:55:00,
2013-07-09 21:57:00,80.9,72.2,30.10,ENE,63,0.0,0.0,75,0.00,CLR,SCT,0.00,WeatherDisplay:10.37,2013-07-10 01:57:00,
2013-07-09 21:59:00,80.9,72.2,30.10,ENE,63,1.1,1.1,75,0.00,CLR,SCT,0.00,WeatherDisplay:10.37,2013-07-10 01:59:00,
2013-07-09 22:00:00,80.8,72.1,30.10,ENE,63,1.1,0.0,75,0.00,CLR,SCT,0.00,WeatherDisplay:10.37,2013-07-10 02:00:00,
2013-07-09 22:02:00,80.7,72.0,30.10,ENE,63,0.0,0.0,75,0.00,CLR,SCT,0.00,WeatherDisplay:10.37,2013-07-10 02:02:00,
2013-07-09 22:04:00,80.6,72.3,30.10,ENE,64,0.0,0.0,76,0.00,CLR,SCT,0.00,WeatherDisplay:10.37,2013-07-10 02:04:00,
2013-07-09 22:08:00,80.4,72.1,30.10,ENE,64,0.0,0.0,76,0.00,CLR,SCT,0.00,WeatherDisplay:10.37,2013-07-10 02:08:00,
2013-07-09 22:09:00,80.4,72.1,30.10,ENE,64,0.0,0.0,76,0.00,CLR,SCT,0.00,WeatherDisplay:10.37,2013-07-10 02:09:00,
2013-07-09 22:12:00,80.1,72.2,30.10,ENE,63,0.0,0.0,77,0.00,CLR,SCT,0.00,WeatherDisplay:10.37,2013-07-10 02:12:00,
2013-07-09 22:13:00,80.0,72.1,30.10,ENE,64,0.0,0.0,77,0.00,CLR,SCT,0.00,WeatherDisplay:10.37,2013-07-10 02:13:00,
2013-07-09 22:14:00,80.0,72.1,30.10,ENE,63,0.0,0.0,77,0.00,CLR,SCT,0.00,WeatherDisplay:10.37,2013-07-10 02:14:00,
2013-07-09 22:15:00,79.9,72.4,30.10,ENE,64,0.0,0.0,78,0.00,CLR,SCT,0.00,WeatherDisplay:10.37,2013-07-10 02:15:00,
2013-07-09 22:16:00,79.8,72.3,30.10,ENE,63,0.0,0.0,78,0.00,CLR,SCT,0.00,WeatherDisplay:10.37,2013-07-10 02:16:00,
2013-07-09 22:18:00,79.7,72.2,30.10,ENE,63,0.0,0.1,78,0.00,CLR,SCT,0.00,WeatherDisplay:10.37,2013-07-10 02:18:00,
2013-07-09 22:19:00,79.7,72.6,30.10,ENE,63,1.1,0.0,79,0.00,CLR,SCT,0.00,WeatherDisplay:10.37,2013-07-10 02:19:00,
2013-07-09 22:20:00,79.7,72.6,30.10,ENE,64,0.0,0.0,79,0.00,CLR,SCT,0.00,WeatherDisplay:10.37,2013-07-10 02:20:00,
2013-07-09 22:22:00,79.5,72.4,30.10,ENE,64,0.0,0.0,79,0.00,CLR,SCT,0.00,WeatherDisplay:10.37,2013-07-10 02:22:00,
2013-07-09 22:23:00,79.4,72.3,30.10,ENE,64,0.0,0.0,79,0.00,CLR,SCT,0.00,WeatherDisplay:10.37,2013-07-10 02:23:00,
2013-07-09 22:24:00,79.4,72.3,30.10,ENE,63,0.0,0.0,79,0.00,CLR,SCT,0.00,WeatherDisplay:10.37,2013-07-10 02:24:00,
2013-07-09 22:26:00,79.2,72.1,30.10,ENE,64,1.1,0.0,79,0.00,CLR,SCT,0.00,WeatherDisplay:10.37,2013-07-10 02:26:00,
2013-07-09 22:28:00,79.2,72.1,30.10,ENE,67,0.0,0.0,79,0.00,CLR,SCT,0.00,WeatherDisplay:10.37,2013-07-10 02:28:00,
2013-07-09 22:29:00,79.1,72.0,30.10,ENE,67,0.0,0.0,79,0.00,CLR,SCT,0.00,WeatherDisplay:10.37,2013-07-10 02:29:00,
2013-07-09 22:31:00,79.0,72.3,30.10,ENE,68,0.0,0.0,80,0.00,CLR,SCT,0.00,WeatherDisplay:10.37,2013-07-10 02:31:00,
2013-07-09 22:32:00,79.0,72.3,30.10,East,93,1.1,0.0,80,0.00,CLR,SCT,0.00,WeatherDisplay:10.37,2013-07-10 02:32:00,
2013-07-09 22:35:00,79.0,72.3,30.10,ENE,78,0.0,1.0,80,0.00,CLR,SCT,0.00,WeatherDisplay:10.37,2013-07-10 02:35:00,
2013-07-09 22:37:00,79.0,72.3,30.10,South,180,0.0,0.0,80,0.00,CLR,SCT,0.00,WeatherDisplay:10.37,2013-07-10 02:37:00,
2013-07-09 22:38:00,79.0,72.3,30.10,South,190,1.0,1.0,80,0.00,CLR,SCT,0.00,WeatherDisplay:10.37,2013-07-10 02:38:00,
2013-07-09 22:39:00,79.0,72.3,30.10,NNE,27,1.1,1.1,80,0.00,CLR,SCT,0.00,WeatherDisplay:10.37,2013-07-10 02:39:00,
2013-07-09 22:42:00,79.0,72.3,30.10,NE,53,2.3,2.3,80,0.00,CLR,SCT,0.00,WeatherDisplay:10.37,2013-07-10 02:42:00,
2013-07-09 22:44:00,79.0,72.7,30.10,NE,56,1.0,1.0,81,0.00,CLR,SCT,0.00,WeatherDisplay:10.37,2013-07-10 02:44:00,
2013-07-09 22:45:00,79.0,72.7,30.10,ENE,74,0.0,2.0,81,0.00,CLR,SCT,0.00,WeatherDisplay:10.37,2013-07-10 02:45:00,
2013-07-09 22:47:00,79.0,72.7,30.10,SSW,210,1.1,1.1,81,0.00,CLR,SCT,0.00,WeatherDisplay:10.37,2013-07-10 02:47:00,
2013-07-09 22:48:00,79.0,72.7,30.10,SSW,210,1.1,1.1,81,0.00,CLR,SCT,0.00,WeatherDisplay:10.37,2013-07-10 02:48:00,
2013-07-09 22:49:00,79.0,72.7,30.10,South,189,1.1,1.1,81,0.00,CLR,SCT,0.00,WeatherDisplay:10.37,2013-07-10 02:49:00,
2013-07-09 22:50:00,79.0,72.7,30.11,SSW,210,0.0,0.1,81,0.00,CLR,SCT,0.00,WeatherDisplay:10.37,2013-07-10 02:50:00,
2013-07-09 22:51:00,79.0,72.7,30.11,SSW,210,1.1,1.1,81,0.00,CLR,SCT,0.00,WeatherDisplay:10.37,2013-07-10 02:51:00,
2013-07-09 22:52:00,79.0,72.7,30.11,SSW,210,0.0,0.0,81,0.00,CLR,SCT,0.00,WeatherDisplay:10.37,2013-07-10 02:52:00,
2013-07-09 22:53:00,79.0,72.7,30.11,South,181,1.1,0.0,81,0.00,CLR,SCT,0.00,WeatherDisplay:10.37,2013-07-10 02:53:00,
2013-07-09 22:54:00,78.9,72.6,30.11,South,180,1.1,1.1,81,0.00,CLR,SCT,0.00,WeatherDisplay:10.37,2013-07-10 02:54:00,
2013-07-09 22:57:00,78.9,72.6,30.11,SE,140,2.3,2.3,81,0.00,CLR,SCT,0.00,WeatherDisplay:10.37,2013-07-10 02:57:00,
2013-07-09 22:59:00,78.9,72.6,30.11,SSE,167,0.0,0.0,81,0.00,CLR,SCT,0.00,WeatherDisplay:10.37,2013-07-10 02:59:00,
2013-07-09 23:00:00,78.9,72.6,30.11,South,172,0.0,2.0,81,0.00,CLR,SCT,0.00,WeatherDisplay:10.37,2013-07-10 03:00:00,
2013-07-09 23:03:00,78.9,72.6,30.11,SE,131,1.1,0.0,81,0.00,CLR,SCT,0.00,WeatherDisplay:10.37,2013-07-10 03:03:00,
2013-07-09 23:04:00,78.8,72.5,30.11,SE,125,1.1,1.1,81,0.00,CLR,SCT,0.00,WeatherDisplay:10.37,2013-07-10 03:04:00,
2013-07-09 23:05:00,78.9,72.6,30.11,SE,141,1.1,0.0,81,0.00,CLR,SCT,0.00,WeatherDisplay:10.37,2013-07-10 03:05:00,
2013-07-09 23:06:00,78.9,72.6,30.11,SE,139,1.1,0.0,81,0.00,CLR,SCT,0.00,WeatherDisplay:10.37,2013-07-10 03:06:00,
2013-07-09 23:08:00,78.9,72.6,30.11,SE,131,0.0,0.0,81,0.00,CLR,SCT,0.00,WeatherDisplay:10.37,2013-07-10 03:08:00,
2013-07-09 23:09:00,78.9,72.6,30.11,ESE,119,1.1,0.0,81,0.00,CLR,SCT,0.00,WeatherDisplay:10.37,2013-07-10 03:09:00,
2013-07-09 23:10:00,78.9,72.6,30.11,SE,133,0.0,1.0,81,0.00,CLR,SCT,0.00,WeatherDisplay:10.37,2013-07-10 03:10:00,
2013-07-09 23:12:00,78.8,72.5,30.11,SSW,210,0.0,0.0,81,0.00,CLR,SCT,0.00,WeatherDisplay:10.37,2013-07-10 03:12:00,
2013-07-09 23:15:00,78.8,72.5,30.11,SSW,210,0.0,0.0,81,0.00,CLR,SCT,0.00,WeatherDisplay:10.37,2013-07-10 03:15:00,
2013-07-09 23:16:00,78.7,72.4,30.11,SSW,210,0.0,0.0,81,0.00,CLR,SCT,0.00,WeatherDisplay:10.37,2013-07-10 03:16:00,
2013-07-09 23:18:00,78.7,72.4,30.11,SSW,210,1.1,1.1,81,0.00,CLR,SCT,0.00,WeatherDisplay:10.37,2013-07-10 03:18:00,
2013-07-09 23:20:00,78.6,72.3,30.11,SSW,210,0.0,1.0,81,0.00,CLR,SCT,0.00,WeatherDisplay:10.37,2013-07-10 03:20:00,
2013-07-09 23:23:00,78.4,72.4,30.11,SSW,210,0.0,0.0,82,0.00,CLR,SCT,0.00,WeatherDisplay:10.37,2013-07-10 03:23:00,
2013-07-09 23:24:00,78.4,72.4,30.11,SSW,210,0.0,0.0,82,0.00,CLR,SCT,0.00,WeatherDisplay:10.37,2013-07-10 03:24:00,
2013-07-09 23:26:00,78.4,72.4,30.11,SSW,210,0.0,0.0,82,0.00,CLR,SCT,0.00,WeatherDisplay:10.37,2013-07-10 03:26:00,
2013-07-09 23:27:00,78.3,72.3,30.11,SSW,210,0.0,0.0,82,0.00,CLR,SCT,0.00,WeatherDisplay:10.37,2013-07-10 03:27:00,
2013-07-09 23:30:00,78.2,72.3,30.11,SSW,210,0.0,0.0,82,0.00,CLR,SCT,0.00,WeatherDisplay:10.37,2013-07-10 03:30:00,
2013-07-09 23:32:00,78.1,72.2,30.11,SSW,210,0.0,0.0,82,0.00,CLR,SCT,0.00,WeatherDisplay:10.37,2013-07-10 03:32:00,
2013-07-09 23:35:00,78.0,72.4,30.11,SSW,210,0.0,0.0,83,0.00,CLR,SCT,0.00,WeatherDisplay:10.37,2013-07-10 03:35:00,
2013-07-09 23:36:00,77.9,72.3,30.11,SSW,210,0.0,0.0,83,0.00,CLR,SCT,0.00,WeatherDisplay:10.37,2013-07-10 03:36:00,
2013-07-09 23:37:00,77.9,72.3,30.11,SSW,210,0.0,0.0,83,0.00,CLR,SCT,0.00,WeatherDisplay:10.37,2013-07-10 03:37:00,
2013-07-09 23:39:00,77.8,72.2,30.11,SSW,210,0.0,0.0,83,0.00,CLR,SCT,0.00,WeatherDisplay:10.37,2013-07-10 03:39:00,
2013-07-09 23:41:00,77.7,72.1,30.11,SSW,210,0.0,0.0,83,0.00,CLR,SCT,0.00,WeatherDisplay:10.37,2013-07-10 03:41:00,
2013-07-09 23:42:00,77.6,72.0,30.11,SSW,210,0.0,0.0,83,0.00,CLR,SCT,0.00,WeatherDisplay:10.37,2013-07-10 03:42:00,
2013-07-09 23:43:00,77.6,72.0,30.11,SSW,210,0.0,0.0,83,0.00,CLR,SCT,0.00,WeatherDisplay:10.37,2013-07-10 03:43:00,
2013-07-09 23:44:00,77.5,72.3,30.11,SSW,210,0.0,0.0,84,0.00,CLR,SCT,0.00,WeatherDisplay:10.37,2013-07-10 03:44:00,
2013-07-09 23:46:00,77.5,72.3,30.11,SSW,210,0.0,0.0,84,0.00,CLR,SCT,0.00,WeatherDisplay:10.37,2013-07-10 03:46:00,
2013-07-09 23:49:00,77.4,72.2,30.11,SSW,210,0.0,0.0,84,0.00,CLR,SCT,0.00,WeatherDisplay:10.37,2013-07-10 03:49:00,
2013-07-09 23:50:00,77.4,72.2,30.11,SSW,210,0.0,0.0,84,0.00,CLR,SCT,0.00,WeatherDisplay:10.37,2013-07-10 03:50:00,
2013-07-09 23:51:00,77.3,72.1,30.11,SSW,210,0.0,0.0,84,0.00,CLR,SCT,0.00,WeatherDisplay:10.37,2013-07-10 03:51:00,
2013-07-09 23:53:00,77.2,72.3,30.11,SSW,210,0.0,0.0,85,0.00,CLR,SCT,0.00,WeatherDisplay:10.37,2013-07-10 03:53:00,
2013-07-09 23:54:00,77.2,72.3,30.11,SSW,210,0.0,0.0,85,0.00,CLR,SCT,0.00,WeatherDisplay:10.37,2013-07-10 03:54:00,
2013-07-09 23:55:00,77.2,72.3,30.11,SSW,210,0.0,0.0,85,0.00,CLR,SCT,0.00,WeatherDisplay:10.37,2013-07-10 03:55:00,
2013-07-09 23:56:00,77.2,72.3,30.11,SSW,210,0.0,0.0,85,0.00,CLR,SCT,0.00,WeatherDisplay:10.37,2013-07-10 03:56:00,
2013-07-09 23:57:00,77.2,72.3,30.11,SSW,210,0.0,0.0,85,0.00,CLR,SCT,0.00,WeatherDisplay:10.37,2013-07-10 03:57:00,